<?xml version="1.0"?>
<gpx xmlns="http://www.topografix.com/GPX/1/1" xmlns:xsi="http://www.w3.org/2001/XMLSchema-instance" xmlns:wptx1="http://www.garmin.com/xmlschemas/WaypointExtension/v1" xmlns:gpxtrx="http://www.garmin.com/xmlschemas/GpxExtensions/v3" xmlns:gpxtpx="http://www.garmin.com/xmlschemas/TrackPointExtension/v1" xmlns:gpxx="http://www.garmin.com/xmlschemas/GpxExtensions/v3" xmlns:trp="http://www.garmin.com/xmlschemas/TripExtensions/v1" xmlns:adv="http://www.garmin.com/xmlschemas/AdventuresExtensions/v1" xmlns:prs="http://www.garmin.com/xmlschemas/PressureExtension/v1" creator="Garmin Desktop App" version="1.1" xsi:schemaLocation="http://www.topografix.com/GPX/1/1 http://www.topografix.com/GPX/1/1/gpx.xsd http://www.garmin.com/xmlschemas/WaypointExtension/v1 http://www8.garmin.com/xmlschemas/WaypointExtensionv1.xsd http://www.garmin.com/xmlschemas/TrackPointExtension/v1 http://www.garmin.com/xmlschemas/TrackPointExtensionv1.xsd http://www.garmin.com/xmlschemas/GpxExtensions/v3 http://www8.garmin.com/xmlschemas/GpxExtensionsv3.xsd http://www.garmin.com/xmlschemas/ActivityExtension/v1 http://www8.garmin.com/xmlschemas/ActivityExtensionv1.xsd http://www.garmin.com/xmlschemas/AdventuresExtensions/v1 http://www8.garmin.com/xmlschemas/AdventuresExtensionv1.xsd http://www.garmin.com/xmlschemas/PressureExtension/v1 http://www.garmin.com/xmlschemas/PressureExtensionv1.xsd http://www.garmin.com/xmlschemas/TripExtensions/v1 http://www.garmin.com/xmlschemas/TripExtensionsv1.xsd">

  <metadata>
    <link href="http://www.garmin.com">
      <text>Garmin International</text>
    </link>
    <time>2013-02-24T18:30:11Z</time>
    <bounds maxlat="47.710977550595999" maxlon="12.259636195376515" minlat="47.688681771978736" minlon="12.239751135930419"/>
  </metadata>

  <trk>
    <name>Spitzstein 2013.02.24</name>
    <extensions>
      <gpxx:TrackExtension>
        <gpxx:DisplayColor>DarkMagenta</gpxx:DisplayColor>
      </gpxx:TrackExtension>
    </extensions>
    <trkseg>
      <trkpt lat="47.689776616171002" lon="12.259604344144464">
        <ele>734.584716796875</ele>
        <time>2013-02-24T10:37:55Z</time>
      </trkpt>
      <trkpt lat="47.689797319471836" lon="12.259632339701056">
        <ele>734.584716796875</ele>
        <time>2013-02-24T10:37:57Z</time>
      </trkpt>
      <trkpt lat="47.68980142660439" lon="12.259636195376515">
        <ele>734.584716796875</ele>
        <time>2013-02-24T10:37:58Z</time>
      </trkpt>
      <trkpt lat="47.689810479059815" lon="12.259596129879355">
        <ele>737.94921875</ele>
        <time>2013-02-24T10:38:09Z</time>
      </trkpt>
      <trkpt lat="47.689815424382687" lon="12.25960174575448">
        <ele>738.91064453125</ele>
        <time>2013-02-24T10:38:11Z</time>
      </trkpt>
      <trkpt lat="47.689824644476175" lon="12.259602919220924">
        <ele>741.313720703125</ele>
        <time>2013-02-24T10:38:17Z</time>
      </trkpt>
      <trkpt lat="47.689823303371668" lon="12.259601075202227">
        <ele>742.755859375</ele>
        <time>2013-02-24T10:38:20Z</time>
      </trkpt>
      <trkpt lat="47.689816681668162" lon="12.259595710784197">
        <ele>744.19775390625</ele>
        <time>2013-02-24T10:38:33Z</time>
      </trkpt>
      <trkpt lat="47.689817519858479" lon="12.259605349972844">
        <ele>747.08154296875</ele>
        <time>2013-02-24T10:38:38Z</time>
      </trkpt>
      <trkpt lat="47.689820788800716" lon="12.259602751582861">
        <ele>748.523681640625</ele>
        <time>2013-02-24T10:38:43Z</time>
      </trkpt>
      <trkpt lat="47.689820704981685" lon="12.259596632793546">
        <ele>749.485107421875</ele>
        <time>2013-02-24T10:38:56Z</time>
      </trkpt>
      <trkpt lat="47.689803773537278" lon="12.259603338316083">
        <ele>750.446533203125</ele>
        <time>2013-02-24T10:39:12Z</time>
      </trkpt>
      <trkpt lat="47.689792206510901" lon="12.259599063545465">
        <ele>750.446533203125</ele>
        <time>2013-02-24T10:39:21Z</time>
      </trkpt>
      <trkpt lat="47.689794050529599" lon="12.259603422135115">
        <ele>750.927001953125</ele>
        <time>2013-02-24T10:39:51Z</time>
      </trkpt>
      <trkpt lat="47.689803186804056" lon="12.259594704955816">
        <ele>751.40771484375</ele>
        <time>2013-02-24T10:40:03Z</time>
      </trkpt>
      <trkpt lat="47.689802600070834" lon="12.259599734097719">
        <ele>750.927001953125</ele>
        <time>2013-02-24T10:40:19Z</time>
      </trkpt>
      <trkpt lat="47.689796648919582" lon="12.259606355801225">
        <ele>750.927001953125</ele>
        <time>2013-02-24T10:40:31Z</time>
      </trkpt>
      <trkpt lat="47.689758175984025" lon="12.259581796824932">
        <ele>751.40771484375</ele>
        <time>2013-02-24T10:42:48Z</time>
      </trkpt>
      <trkpt lat="47.689741244539618" lon="12.259528404101729">
        <ele>751.888427734375</ele>
        <time>2013-02-24T10:42:52Z</time>
      </trkpt>
      <trkpt lat="47.68959229812026" lon="12.25921768695116">
        <ele>753.81103515625</ele>
        <time>2013-02-24T10:43:17Z</time>
      </trkpt>
      <trkpt lat="47.689490122720599" lon="12.259011492133141">
        <ele>754.772216796875</ele>
        <time>2013-02-24T10:43:33Z</time>
      </trkpt>
      <trkpt lat="47.689437568187714" lon="12.258901689201593">
        <ele>755.733642578125</ele>
        <time>2013-02-24T10:43:41Z</time>
      </trkpt>
      <trkpt lat="47.689337572082877" lon="12.258673869073391">
        <ele>755.2529296875</ele>
        <time>2013-02-24T10:43:56Z</time>
      </trkpt>
      <trkpt lat="47.68921360373497" lon="12.258408581838012">
        <ele>758.136962890625</ele>
        <time>2013-02-24T10:44:13Z</time>
      </trkpt>
      <trkpt lat="47.689057448878884" lon="12.258083363994956">
        <ele>759.578857421875</ele>
        <time>2013-02-24T10:44:33Z</time>
      </trkpt>
      <trkpt lat="47.688897522166371" lon="12.257815562188625">
        <ele>760.5400390625</ele>
        <time>2013-02-24T10:44:51Z</time>
      </trkpt>
      <trkpt lat="47.688763746991754" lon="12.257478106766939">
        <ele>761.020751953125</ele>
        <time>2013-02-24T10:45:10Z</time>
      </trkpt>
      <trkpt lat="47.688686884939671" lon="12.257049456238747">
        <ele>762.943359375</ele>
        <time>2013-02-24T10:45:32Z</time>
      </trkpt>
      <trkpt lat="47.688681771978736" lon="12.25673689506948">
        <ele>764.385498046875</ele>
        <time>2013-02-24T10:45:49Z</time>
      </trkpt>
      <trkpt lat="47.688779756426811" lon="12.256474457681179">
        <ele>765.346923828125</ele>
        <time>2013-02-24T10:46:04Z</time>
      </trkpt>
      <trkpt lat="47.688867598772049" lon="12.256264574825764">
        <ele>766.30810546875</ele>
        <time>2013-02-24T10:46:18Z</time>
      </trkpt>
      <trkpt lat="47.68889743834734" lon="12.256213361397386">
        <ele>766.30810546875</ele>
        <time>2013-02-24T10:46:30Z</time>
      </trkpt>
      <trkpt lat="47.68888033926487" lon="12.256213529035449">
        <ele>766.788818359375</ele>
        <time>2013-02-24T10:47:00Z</time>
      </trkpt>
      <trkpt lat="47.688873717561364" lon="12.256209505721927">
        <ele>766.30810546875</ele>
        <time>2013-02-24T10:47:08Z</time>
      </trkpt>
      <trkpt lat="47.688891654834151" lon="12.256199028342962">
        <ele>766.788818359375</ele>
        <time>2013-02-24T10:49:16Z</time>
      </trkpt>
      <trkpt lat="47.688901042565703" lon="12.256195591762662">
        <ele>766.30810546875</ele>
        <time>2013-02-24T10:49:30Z</time>
      </trkpt>
      <trkpt lat="47.688919231295586" lon="12.256186958402395">
        <ele>766.788818359375</ele>
        <time>2013-02-24T10:50:00Z</time>
      </trkpt>
      <trkpt lat="47.688950411975384" lon="12.256145384162664">
        <ele>767.26953125</ele>
        <time>2013-02-24T10:50:23Z</time>
      </trkpt>
      <trkpt lat="47.68901227042079" lon="12.256055781617761">
        <ele>767.75</ele>
        <time>2013-02-24T10:50:34Z</time>
      </trkpt>
      <trkpt lat="47.689083265140653" lon="12.255905577912927">
        <ele>767.75</ele>
        <time>2013-02-24T10:50:47Z</time>
      </trkpt>
      <trkpt lat="47.689120061695576" lon="12.255738945677876">
        <ele>769.192138671875</ele>
        <time>2013-02-24T10:51:00Z</time>
      </trkpt>
      <trkpt lat="47.689156271517277" lon="12.255561584606767">
        <ele>770.634033203125</ele>
        <time>2013-02-24T10:51:12Z</time>
      </trkpt>
      <trkpt lat="47.689198013395071" lon="12.25539319217205">
        <ele>772.075927734375</ele>
        <time>2013-02-24T10:51:26Z</time>
      </trkpt>
      <trkpt lat="47.689259620383382" lon="12.255209712311625">
        <ele>773.037353515625</ele>
        <time>2013-02-24T10:51:39Z</time>
      </trkpt>
      <trkpt lat="47.689315024763346" lon="12.255090437829494">
        <ele>773.037353515625</ele>
        <time>2013-02-24T10:51:48Z</time>
      </trkpt>
      <trkpt lat="47.689378140494227" lon="12.25495096296072">
        <ele>773.037353515625</ele>
        <time>2013-02-24T10:52:00Z</time>
      </trkpt>
      <trkpt lat="47.689443938434124" lon="12.254681317135692">
        <ele>774.479248046875</ele>
        <time>2013-02-24T10:52:19Z</time>
      </trkpt>
      <trkpt lat="47.689504371955991" lon="12.254575118422508">
        <ele>775.921142578125</ele>
        <time>2013-02-24T10:52:32Z</time>
      </trkpt>
      <trkpt lat="47.689507976174355" lon="12.254574531689286">
        <ele>775.921142578125</ele>
        <time>2013-02-24T10:52:48Z</time>
      </trkpt>
      <trkpt lat="47.689525745809078" lon="12.254564808681607">
        <ele>776.40185546875</ele>
        <time>2013-02-24T10:53:08Z</time>
      </trkpt>
      <trkpt lat="47.689543263986707" lon="12.254487443715334">
        <ele>777.84375</ele>
        <time>2013-02-24T10:53:23Z</time>
      </trkpt>
      <trkpt lat="47.689568912610412" lon="12.254326678812504">
        <ele>780.72802734375</ele>
        <time>2013-02-24T10:53:35Z</time>
      </trkpt>
      <trkpt lat="47.689583664759994" lon="12.254200866445899">
        <ele>783.61181640625</ele>
        <time>2013-02-24T10:53:48Z</time>
      </trkpt>
      <trkpt lat="47.689619539305568" lon="12.254054434597492">
        <ele>786.495849609375</ele>
        <time>2013-02-24T10:54:02Z</time>
      </trkpt>
      <trkpt lat="47.689674692228436" lon="12.253888640552759">
        <ele>788.899169921875</ele>
        <time>2013-02-24T10:54:15Z</time>
      </trkpt>
      <trkpt lat="47.689705789089203" lon="12.253729049116373">
        <ele>791.782958984375</ele>
        <time>2013-02-24T10:54:30Z</time>
      </trkpt>
      <trkpt lat="47.68975448794663" lon="12.253579180687666">
        <ele>793.224853515625</ele>
        <time>2013-02-24T10:54:43Z</time>
      </trkpt>
      <trkpt lat="47.689801510423422" lon="12.253432329744101">
        <ele>795.1474609375</ele>
        <time>2013-02-24T10:54:57Z</time>
      </trkpt>
      <trkpt lat="47.689834870398045" lon="12.253323365002871">
        <ele>797.0703125</ele>
        <time>2013-02-24T10:55:09Z</time>
      </trkpt>
      <trkpt lat="47.689875941723585" lon="12.253259578719735">
        <ele>798.992919921875</ele>
        <time>2013-02-24T10:55:17Z</time>
      </trkpt>
      <trkpt lat="47.689950121566653" lon="12.253180202096701">
        <ele>800.43505859375</ele>
        <time>2013-02-24T10:55:28Z</time>
      </trkpt>
      <trkpt lat="47.690036287531257" lon="12.253169473260641">
        <ele>801.396240234375</ele>
        <time>2013-02-24T10:55:38Z</time>
      </trkpt>
      <trkpt lat="47.690138882026076" lon="12.253159247338772">
        <ele>803.31884765625</ele>
        <time>2013-02-24T10:55:49Z</time>
      </trkpt>
      <trkpt lat="47.690241225063801" lon="12.253148099407554">
        <ele>805.72216796875</ele>
        <time>2013-02-24T10:56:02Z</time>
      </trkpt>
      <trkpt lat="47.690350944176316" lon="12.253161426633596">
        <ele>808.60595703125</ele>
        <time>2013-02-24T10:56:19Z</time>
      </trkpt>
      <trkpt lat="47.690459741279483" lon="12.253255136311054">
        <ele>811.970703125</ele>
        <time>2013-02-24T10:56:37Z</time>
      </trkpt>
      <trkpt lat="47.690576333552599" lon="12.253297716379166">
        <ele>814.854736328125</ele>
        <time>2013-02-24T10:56:57Z</time>
      </trkpt>
      <trkpt lat="47.690672390162945" lon="12.253243904560804">
        <ele>818.21923828125</ele>
        <time>2013-02-24T10:57:16Z</time>
      </trkpt>
      <trkpt lat="47.690634587779641" lon="12.253086324781179">
        <ele>819.661376953125</ele>
        <time>2013-02-24T10:57:32Z</time>
      </trkpt>
      <trkpt lat="47.690605502575636" lon="12.25295833311975">
        <ele>822.064453125</ele>
        <time>2013-02-24T10:57:48Z</time>
      </trkpt>
      <trkpt lat="47.690582033246756" lon="12.252760771661997">
        <ele>825.428955078125</ele>
        <time>2013-02-24T10:58:10Z</time>
      </trkpt>
      <trkpt lat="47.69061497412622" lon="12.252564132213593">
        <ele>828.313232421875</ele>
        <time>2013-02-24T10:58:34Z</time>
      </trkpt>
      <trkpt lat="47.690667612478137" lon="12.252430776134133">
        <ele>831.677734375</ele>
        <time>2013-02-24T10:58:54Z</time>
      </trkpt>
      <trkpt lat="47.690735505893826" lon="12.252387776970863">
        <ele>834.0810546875</ele>
        <time>2013-02-24T10:59:11Z</time>
      </trkpt>
      <trkpt lat="47.690832987427711" lon="12.25239397957921">
        <ele>837.445556640625</ele>
        <time>2013-02-24T10:59:29Z</time>
      </trkpt>
      <trkpt lat="47.690970031544566" lon="12.252414934337139">
        <ele>839.848876953125</ele>
        <time>2013-02-24T10:59:50Z</time>
      </trkpt>
      <trkpt lat="47.691088803112507" lon="12.252342514693737">
        <ele>843.21337890625</ele>
        <time>2013-02-24T11:00:08Z</time>
      </trkpt>
      <trkpt lat="47.691223667934537" lon="12.252225670963526">
        <ele>846.578369140625</ele>
        <time>2013-02-24T11:00:31Z</time>
      </trkpt>
      <trkpt lat="47.691346714273095" lon="12.252072198316455">
        <ele>849.462158203125</ele>
        <time>2013-02-24T11:00:53Z</time>
      </trkpt>
      <trkpt lat="47.691397089511156" lon="12.25197765044868">
        <ele>851.865478515625</ele>
        <time>2013-02-24T11:01:07Z</time>
      </trkpt>
      <trkpt lat="47.691451068967581" lon="12.251833649352193">
        <ele>854.268798828125</ele>
        <time>2013-02-24T11:01:25Z</time>
      </trkpt>
      <trkpt lat="47.691514100879431" lon="12.251657210290432">
        <ele>856.191162109375</ele>
        <time>2013-02-24T11:01:44Z</time>
      </trkpt>
      <trkpt lat="47.691664891317487" lon="12.251484459266067">
        <ele>857.152587890625</ele>
        <time>2013-02-24T11:02:07Z</time>
      </trkpt>
      <trkpt lat="47.691827919334173" lon="12.251398293301463">
        <ele>859.555908203125</ele>
        <time>2013-02-24T11:02:28Z</time>
      </trkpt>
      <trkpt lat="47.691858345642686" lon="12.251380272209644">
        <ele>859.555908203125</ele>
        <time>2013-02-24T11:02:32Z</time>
      </trkpt>
      <trkpt lat="47.691999496892095" lon="12.251291507855058">
        <ele>861.478759765625</ele>
        <time>2013-02-24T11:02:52Z</time>
      </trkpt>
      <trkpt lat="47.692038221284747" lon="12.251303913071752">
        <ele>862.920654296875</ele>
        <time>2013-02-24T11:03:35Z</time>
      </trkpt>
      <trkpt lat="47.692055068910122" lon="12.251308774575591">
        <ele>863.4013671875</ele>
        <time>2013-02-24T11:03:37Z</time>
      </trkpt>
      <trkpt lat="47.692096307873726" lon="12.251276923343539">
        <ele>862.43994140625</ele>
        <time>2013-02-24T11:03:42Z</time>
      </trkpt>
      <trkpt lat="47.692101001739502" lon="12.250915076583624">
        <ele>858.594482421875</ele>
        <time>2013-02-24T11:03:51Z</time>
      </trkpt>
      <trkpt lat="47.692131260409951" lon="12.250764453783631">
        <ele>857.152587890625</ele>
        <time>2013-02-24T11:03:55Z</time>
      </trkpt>
      <trkpt lat="47.692207032814622" lon="12.25060461089015">
        <ele>855.22998046875</ele>
        <time>2013-02-24T11:04:03Z</time>
      </trkpt>
      <trkpt lat="47.69230174832046" lon="12.250402104109526">
        <ele>851.384765625</ele>
        <time>2013-02-24T11:04:09Z</time>
      </trkpt>
      <trkpt lat="47.692329157143831" lon="12.250367654487491">
        <ele>850.423583984375</ele>
        <time>2013-02-24T11:04:10Z</time>
      </trkpt>
      <trkpt lat="47.692495035007596" lon="12.250276710838079">
        <ele>846.09765625</ele>
        <time>2013-02-24T11:04:14Z</time>
      </trkpt>
      <trkpt lat="47.692645154893398" lon="12.250318201258779">
        <ele>843.694091796875</ele>
        <time>2013-02-24T11:04:17Z</time>
      </trkpt>
      <trkpt lat="47.692674407735467" lon="12.250358769670129">
        <ele>842.73291015625</ele>
        <time>2013-02-24T11:04:25Z</time>
      </trkpt>
      <trkpt lat="47.692682202905416" lon="12.250357763841748">
        <ele>843.694091796875</ele>
        <time>2013-02-24T11:04:39Z</time>
      </trkpt>
      <trkpt lat="47.692743726074696" lon="12.250424986705184">
        <ele>841.771484375</ele>
        <time>2013-02-24T11:04:49Z</time>
      </trkpt>
      <trkpt lat="47.692776834592223" lon="12.250434206798673">
        <ele>842.252197265625</ele>
        <time>2013-02-24T11:05:02Z</time>
      </trkpt>
      <trkpt lat="47.692804662510753" lon="12.250414844602346">
        <ele>841.771484375</ele>
        <time>2013-02-24T11:05:19Z</time>
      </trkpt>
      <trkpt lat="47.692827042192221" lon="12.250361535698175">
        <ele>842.252197265625</ele>
        <time>2013-02-24T11:05:30Z</time>
      </trkpt>
      <trkpt lat="47.692837351933122" lon="12.250260701403022">
        <ele>843.21337890625</ele>
        <time>2013-02-24T11:06:06Z</time>
      </trkpt>
      <trkpt lat="47.692844728007913" lon="12.250196747481823">
        <ele>843.694091796875</ele>
        <time>2013-02-24T11:06:10Z</time>
      </trkpt>
      <trkpt lat="47.692853361368179" lon="12.250025002285838">
        <ele>844.655517578125</ele>
        <time>2013-02-24T11:06:22Z</time>
      </trkpt>
      <trkpt lat="47.69286073744297" lon="12.249916289001703">
        <ele>847.058837890625</ele>
        <time>2013-02-24T11:06:34Z</time>
      </trkpt>
      <trkpt lat="47.692904239520431" lon="12.249745465815067">
        <ele>850.423583984375</ele>
        <time>2013-02-24T11:06:52Z</time>
      </trkpt>
      <trkpt lat="47.692920584231615" lon="12.249588221311569">
        <ele>853.307373046875</ele>
        <time>2013-02-24T11:07:10Z</time>
      </trkpt>
      <trkpt lat="47.692918069660664" lon="12.249406082555652">
        <ele>855.710693359375</ele>
        <time>2013-02-24T11:07:28Z</time>
      </trkpt>
      <trkpt lat="47.692929049953818" lon="12.249211706221104">
        <ele>858.594482421875</ele>
        <time>2013-02-24T11:07:47Z</time>
      </trkpt>
      <trkpt lat="47.692977413535118" lon="12.249025460332632">
        <ele>862.43994140625</ele>
        <time>2013-02-24T11:08:10Z</time>
      </trkpt>
      <trkpt lat="47.693039607256651" lon="12.248824629932642">
        <ele>865.323974609375</ele>
        <time>2013-02-24T11:08:33Z</time>
      </trkpt>
      <trkpt lat="47.693093921989202" lon="12.248631343245506">
        <ele>868.6884765625</ele>
        <time>2013-02-24T11:08:54Z</time>
      </trkpt>
      <trkpt lat="47.693166006356478" lon="12.248478289693594">
        <ele>872.052978515625</ele>
        <time>2013-02-24T11:09:16Z</time>
      </trkpt>
      <trkpt lat="47.693210933357477" lon="12.248434452340007">
        <ele>873.9755859375</ele>
        <time>2013-02-24T11:09:27Z</time>
      </trkpt>
      <trkpt lat="47.693248903378844" lon="12.248256420716643">
        <ele>873.9755859375</ele>
        <time>2013-02-24T11:09:41Z</time>
      </trkpt>
      <trkpt lat="47.693220321089029" lon="12.24810772575438">
        <ele>874.93701171875</ele>
        <time>2013-02-24T11:09:51Z</time>
      </trkpt>
      <trkpt lat="47.693181512877345" lon="12.24787806160748">
        <ele>876.379150390625</ele>
        <time>2013-02-24T11:10:07Z</time>
      </trkpt>
      <trkpt lat="47.693173130974174" lon="12.247705394402146">
        <ele>877.821044921875</ele>
        <time>2013-02-24T11:10:20Z</time>
      </trkpt>
      <trkpt lat="47.693186458200216" lon="12.247528284788132">
        <ele>879.262939453125</ele>
        <time>2013-02-24T11:10:34Z</time>
      </trkpt>
      <trkpt lat="47.693199198693037" lon="12.247334579005837">
        <ele>881.666259765625</ele>
        <time>2013-02-24T11:10:51Z</time>
      </trkpt>
      <trkpt lat="47.693227445706725" lon="12.247137352824211">
        <ele>883.5888671875</ele>
        <time>2013-02-24T11:11:09Z</time>
      </trkpt>
      <trkpt lat="47.693255776539445" lon="12.247025705873966">
        <ele>885.511474609375</ele>
        <time>2013-02-24T11:11:22Z</time>
      </trkpt>
      <trkpt lat="47.693268600851297" lon="12.247011624276638">
        <ele>885.511474609375</ele>
        <time>2013-02-24T11:11:33Z</time>
      </trkpt>
      <trkpt lat="47.693287543952465" lon="12.246972899883986">
        <ele>887.43408203125</ele>
        <time>2013-02-24T11:11:52Z</time>
      </trkpt>
      <trkpt lat="47.693326435983181" lon="12.246891343966126">
        <ele>888.3955078125</ele>
        <time>2013-02-24T11:12:04Z</time>
      </trkpt>
      <trkpt lat="47.693370189517736" lon="12.246811212971807">
        <ele>890.798583984375</ele>
        <time>2013-02-24T11:12:16Z</time>
      </trkpt>
      <trkpt lat="47.693410171195865" lon="12.246715156361461">
        <ele>893.2021484375</ele>
        <time>2013-02-24T11:12:28Z</time>
      </trkpt>
      <trkpt lat="47.693454092368484" lon="12.246619435027242">
        <ele>895.124755859375</ele>
        <time>2013-02-24T11:12:42Z</time>
      </trkpt>
      <trkpt lat="47.693497594445944" lon="12.246536370366812">
        <ele>896.56689453125</ele>
        <time>2013-02-24T11:12:55Z</time>
      </trkpt>
      <trkpt lat="47.693514693528414" lon="12.246484905481339">
        <ele>898.0087890625</ele>
        <time>2013-02-24T11:13:03Z</time>
      </trkpt>
      <trkpt lat="47.693548304960132" lon="12.24639798514545">
        <ele>899.931396484375</ele>
        <time>2013-02-24T11:13:15Z</time>
      </trkpt>
      <trkpt lat="47.693590382114053" lon="12.246273094788194">
        <ele>902.33447265625</ele>
        <time>2013-02-24T11:13:30Z</time>
      </trkpt>
      <trkpt lat="47.693624580278993" lon="12.246159520000219">
        <ele>904.25732421875</ele>
        <time>2013-02-24T11:13:44Z</time>
      </trkpt>
      <trkpt lat="47.693667579442263" lon="12.246063547208905">
        <ele>906.1796875</ele>
        <time>2013-02-24T11:13:57Z</time>
      </trkpt>
      <trkpt lat="47.693698508664966" lon="12.245985344052315">
        <ele>907.621826171875</ele>
        <time>2013-02-24T11:14:08Z</time>
      </trkpt>
      <trkpt lat="47.693728934973478" lon="12.245902363210917">
        <ele>909.544677734375</ele>
        <time>2013-02-24T11:14:20Z</time>
      </trkpt>
      <trkpt lat="47.69375491887331" lon="12.245828937739134">
        <ele>911.947998046875</ele>
        <time>2013-02-24T11:14:31Z</time>
      </trkpt>
      <trkpt lat="47.693779980763793" lon="12.245767079293728">
        <ele>912.9091796875</ele>
        <time>2013-02-24T11:14:40Z</time>
      </trkpt>
      <trkpt lat="47.693804036825895" lon="12.245685774832964">
        <ele>915.3125</ele>
        <time>2013-02-24T11:14:52Z</time>
      </trkpt>
      <trkpt lat="47.693827170878649" lon="12.24561327137053">
        <ele>916.75439453125</ele>
        <time>2013-02-24T11:15:03Z</time>
      </trkpt>
      <trkpt lat="47.693863632157445" lon="12.245537415146828">
        <ele>919.15771484375</ele>
        <time>2013-02-24T11:15:15Z</time>
      </trkpt>
      <trkpt lat="47.693884167820215" lon="12.245475137606263">
        <ele>920.118896484375</ele>
        <time>2013-02-24T11:15:23Z</time>
      </trkpt>
      <trkpt lat="47.693909648805857" lon="12.245397102087736">
        <ele>921.080322265625</ele>
        <time>2013-02-24T11:15:33Z</time>
      </trkpt>
      <trkpt lat="47.693946193903685" lon="12.245323089882731">
        <ele>923.483642578125</ele>
        <time>2013-02-24T11:15:44Z</time>
      </trkpt>
      <trkpt lat="47.693978296592832" lon="12.245251256972551">
        <ele>925.886962890625</ele>
        <time>2013-02-24T11:15:56Z</time>
      </trkpt>
      <trkpt lat="47.694005705416203" lon="12.245185878127813">
        <ele>926.848388671875</ele>
        <time>2013-02-24T11:16:05Z</time>
      </trkpt>
      <trkpt lat="47.694043256342411" lon="12.245123432949185">
        <ele>928.77099609375</ele>
        <time>2013-02-24T11:16:15Z</time>
      </trkpt>
      <trkpt lat="47.694062367081642" lon="12.245079427957535">
        <ele>930.693603515625</ele>
        <time>2013-02-24T11:16:24Z</time>
      </trkpt>
      <trkpt lat="47.694074939936399" lon="12.245057718828321">
        <ele>930.693603515625</ele>
        <time>2013-02-24T11:16:36Z</time>
      </trkpt>
      <trkpt lat="47.694135289639235" lon="12.244980605319142">
        <ele>934.05810546875</ele>
        <time>2013-02-24T11:16:52Z</time>
      </trkpt>
      <trkpt lat="47.69419371150434" lon="12.244876669719815">
        <ele>935.5</ele>
        <time>2013-02-24T11:17:08Z</time>
      </trkpt>
      <trkpt lat="47.694255989044905" lon="12.244737362489104">
        <ele>938.86474609375</ele>
        <time>2013-02-24T11:17:27Z</time>
      </trkpt>
      <trkpt lat="47.694314243271947" lon="12.244649603962898">
        <ele>941.26806640625</ele>
        <time>2013-02-24T11:17:43Z</time>
      </trkpt>
      <trkpt lat="47.694378867745399" lon="12.244523875415325">
        <ele>944.152099609375</ele>
        <time>2013-02-24T11:18:01Z</time>
      </trkpt>
      <trkpt lat="47.694453885778785" lon="12.244395297020674">
        <ele>945.593994140625</ele>
        <time>2013-02-24T11:18:18Z</time>
      </trkpt>
      <trkpt lat="47.694493196904659" lon="12.244276441633701">
        <ele>947.035888671875</ele>
        <time>2013-02-24T11:18:32Z</time>
      </trkpt>
      <trkpt lat="47.69457140006125" lon="12.244114670902491">
        <ele>949.919921875</ele>
        <time>2013-02-24T11:18:52Z</time>
      </trkpt>
      <trkpt lat="47.694629319012165" lon="12.244011992588639">
        <ele>951.842529296875</ele>
        <time>2013-02-24T11:19:05Z</time>
      </trkpt>
      <trkpt lat="47.694689081981778" lon="12.243946027010679">
        <ele>953.76513671875</ele>
        <time>2013-02-24T11:19:18Z</time>
      </trkpt>
      <trkpt lat="47.694713054224849" lon="12.243875116109848">
        <ele>955.687744140625</ele>
        <time>2013-02-24T11:19:31Z</time>
      </trkpt>
      <trkpt lat="47.694784048944712" lon="12.243793057277799">
        <ele>959.052490234375</ele>
        <time>2013-02-24T11:19:48Z</time>
      </trkpt>
      <trkpt lat="47.694822521880269" lon="12.243722900748253">
        <ele>960.97509765625</ele>
        <time>2013-02-24T11:20:01Z</time>
      </trkpt>
      <trkpt lat="47.694846913218498" lon="12.243696833029389">
        <ele>962.897705078125</ele>
        <time>2013-02-24T11:20:12Z</time>
      </trkpt>
      <trkpt lat="47.694854037836194" lon="12.243679817765951">
        <ele>963.85888671875</ele>
        <time>2013-02-24T11:20:17Z</time>
      </trkpt>
      <trkpt lat="47.694888906553388" lon="12.243603961542249">
        <ele>965.78173828125</ele>
        <time>2013-02-24T11:20:29Z</time>
      </trkpt>
      <trkpt lat="47.69493349827826" lon="12.243511592969298">
        <ele>969.626953125</ele>
        <time>2013-02-24T11:20:42Z</time>
      </trkpt>
      <trkpt lat="47.694992674514651" lon="12.243467420339584">
        <ele>972.0302734375</ele>
        <time>2013-02-24T11:20:58Z</time>
      </trkpt>
      <trkpt lat="47.695042882114649" lon="12.243386283516884">
        <ele>975.394775390625</ele>
        <time>2013-02-24T11:21:11Z</time>
      </trkpt>
      <trkpt lat="47.695093173533678" lon="12.24329374730587">
        <ele>978.759521484375</ele>
        <time>2013-02-24T11:21:28Z</time>
      </trkpt>
      <trkpt lat="47.69514019601047" lon="12.243242785334587">
        <ele>980.201416015625</ele>
        <time>2013-02-24T11:21:48Z</time>
      </trkpt>
      <trkpt lat="47.695176405832171" lon="12.24323951639235">
        <ele>982.604736328125</ele>
        <time>2013-02-24T11:21:57Z</time>
      </trkpt>
      <trkpt lat="47.695223595947027" lon="12.243163576349616">
        <ele>984.046630859375</ele>
        <time>2013-02-24T11:22:07Z</time>
      </trkpt>
      <trkpt lat="47.695294003933668" lon="12.243065508082509">
        <ele>986.449951171875</ele>
        <time>2013-02-24T11:22:21Z</time>
      </trkpt>
      <trkpt lat="47.695381930097938" lon="12.24307824857533">
        <ele>987.891845703125</ele>
        <time>2013-02-24T11:22:34Z</time>
      </trkpt>
      <trkpt lat="47.695376230403781" lon="12.243160307407379">
        <ele>989.333984375</ele>
        <time>2013-02-24T11:22:45Z</time>
      </trkpt>
      <trkpt lat="47.695375978946686" lon="12.243225267156959">
        <ele>989.814697265625</ele>
        <time>2013-02-24T11:23:04Z</time>
      </trkpt>
      <trkpt lat="47.695454601198435" lon="12.243321156129241">
        <ele>992.218017578125</ele>
        <time>2013-02-24T11:23:18Z</time>
      </trkpt>
      <trkpt lat="47.695542359724641" lon="12.243324425071478">
        <ele>994.62109375</ele>
        <time>2013-02-24T11:23:35Z</time>
      </trkpt>
      <trkpt lat="47.695572534576058" lon="12.243270194157958">
        <ele>996.063232421875</ele>
        <time>2013-02-24T11:23:44Z</time>
      </trkpt>
      <trkpt lat="47.695608325302601" lon="12.243140190839767">
        <ele>998.947021484375</ele>
        <time>2013-02-24T11:24:00Z</time>
      </trkpt>
      <trkpt lat="47.695664064958692" lon="12.243065424263477">
        <ele>1001.350341796875</ele>
        <time>2013-02-24T11:24:13Z</time>
      </trkpt>
      <trkpt lat="47.695746626704931" lon="12.242944641038775">
        <ele>1003.753662109375</ele>
        <time>2013-02-24T11:24:32Z</time>
      </trkpt>
      <trkpt lat="47.695783004164696" lon="12.242841459810734">
        <ele>1006.6376953125</ele>
        <time>2013-02-24T11:24:45Z</time>
      </trkpt>
      <trkpt lat="47.695857770740986" lon="12.242717994377017">
        <ele>1009.521728515625</ele>
        <time>2013-02-24T11:25:04Z</time>
      </trkpt>
      <trkpt lat="47.695889035239816" lon="12.242595115676522">
        <ele>1012.405517578125</ele>
        <time>2013-02-24T11:25:18Z</time>
      </trkpt>
      <trkpt lat="47.695927591994405" lon="12.242502076551318">
        <ele>1014.328125</ele>
        <time>2013-02-24T11:25:31Z</time>
      </trkpt>
      <trkpt lat="47.695993557572365" lon="12.242438960820436">
        <ele>1017.212158203125</ele>
        <time>2013-02-24T11:25:44Z</time>
      </trkpt>
      <trkpt lat="47.696067318320274" lon="12.242428483441472">
        <ele>1019.615478515625</ele>
        <time>2013-02-24T11:25:58Z</time>
      </trkpt>
      <trkpt lat="47.696118196472526" lon="12.242446755990386">
        <ele>1021.0576171875</ele>
        <time>2013-02-24T11:26:08Z</time>
      </trkpt>
      <trkpt lat="47.696205619722605" lon="12.242456311360002">
        <ele>1023.94140625</ele>
        <time>2013-02-24T11:26:25Z</time>
      </trkpt>
      <trkpt lat="47.696263622492552" lon="12.242519594728947">
        <ele>1026.3447265625</ele>
        <time>2013-02-24T11:26:38Z</time>
      </trkpt>
      <trkpt lat="47.696317015215755" lon="12.242576843127608">
        <ele>1028.267333984375</ele>
        <time>2013-02-24T11:26:49Z</time>
      </trkpt>
      <trkpt lat="47.696412149816751" lon="12.242645574733615">
        <ele>1030.670654296875</ele>
        <time>2013-02-24T11:27:03Z</time>
      </trkpt>
      <trkpt lat="47.696477863937616" lon="12.242664350196719">
        <ele>1032.112548828125</ele>
        <time>2013-02-24T11:27:16Z</time>
      </trkpt>
      <trkpt lat="47.696542320773005" lon="12.242678599432111">
        <ele>1034.515869140625</ele>
        <time>2013-02-24T11:27:29Z</time>
      </trkpt>
      <trkpt lat="47.696598060429096" lon="12.242681700736284">
        <ele>1036.438720703125</ele>
        <time>2013-02-24T11:27:40Z</time>
      </trkpt>
      <trkpt lat="47.696652626618743" lon="12.242685053497553">
        <ele>1037.880615234375</ele>
        <time>2013-02-24T11:27:51Z</time>
      </trkpt>
      <trkpt lat="47.696698643267155" lon="12.242685053497553">
        <ele>1039.322509765625</ele>
        <time>2013-02-24T11:28:01Z</time>
      </trkpt>
      <trkpt lat="47.696749772876501" lon="12.242680359631777">
        <ele>1040.764404296875</ele>
        <time>2013-02-24T11:28:09Z</time>
      </trkpt>
      <trkpt lat="47.696822443976998" lon="12.242695530876517">
        <ele>1042.687255859375</ele>
        <time>2013-02-24T11:28:22Z</time>
      </trkpt>
      <trkpt lat="47.696901569142938" lon="12.242704164236784">
        <ele>1045.571044921875</ele>
        <time>2013-02-24T11:28:38Z</time>
      </trkpt>
      <trkpt lat="47.696972312405705" lon="12.242716820910573">
        <ele>1047.49365234375</ele>
        <time>2013-02-24T11:28:51Z</time>
      </trkpt>
      <trkpt lat="47.69704582169652" lon="12.24273132160306">
        <ele>1048.935546875</ele>
        <time>2013-02-24T11:29:02Z</time>
      </trkpt>
      <trkpt lat="47.697094017639756" lon="12.242727214470506">
        <ele>1049.89697265625</ele>
        <time>2013-02-24T11:29:09Z</time>
      </trkpt>
      <trkpt lat="47.697200300171971" lon="12.242745151743293">
        <ele>1051.819580078125</ele>
        <time>2013-02-24T11:29:25Z</time>
      </trkpt>
      <trkpt lat="47.697220165282488" lon="12.242742385715246">
        <ele>1051.819580078125</ele>
        <time>2013-02-24T11:29:28Z</time>
      </trkpt>
      <trkpt lat="47.697305493056774" lon="12.24272302351892">
        <ele>1053.26171875</ele>
        <time>2013-02-24T11:29:38Z</time>
      </trkpt>
      <trkpt lat="47.697385707870126" lon="12.242673318833113">
        <ele>1054.70361328125</ele>
        <time>2013-02-24T11:29:50Z</time>
      </trkpt>
      <trkpt lat="47.697474723681808" lon="12.242657477036119">
        <ele>1057.10693359375</ele>
        <time>2013-02-24T11:30:03Z</time>
      </trkpt>
      <trkpt lat="47.697537923231721" lon="12.242691842839122">
        <ele>1058.548828125</ele>
        <time>2013-02-24T11:30:13Z</time>
      </trkpt>
      <trkpt lat="47.697620904073119" lon="12.24267809651792">
        <ele>1058.548828125</ele>
        <time>2013-02-24T11:30:24Z</time>
      </trkpt>
      <trkpt lat="47.697663316503167" lon="12.242642221972346">
        <ele>1058.548828125</ele>
        <time>2013-02-24T11:30:29Z</time>
      </trkpt>
      <trkpt lat="47.697745375335217" lon="12.242570305243134">
        <ele>1060.471435546875</ele>
        <time>2013-02-24T11:30:38Z</time>
      </trkpt>
      <trkpt lat="47.697808826342225" lon="12.242510793730617">
        <ele>1060.9521484375</ele>
        <time>2013-02-24T11:30:49Z</time>
      </trkpt>
      <trkpt lat="47.697868254035711" lon="12.242433680221438">
        <ele>1062.874755859375</ele>
        <time>2013-02-24T11:30:59Z</time>
      </trkpt>
      <trkpt lat="47.697933800518513" lon="12.24241130053997">
        <ele>1064.316650390625</ele>
        <time>2013-02-24T11:31:12Z</time>
      </trkpt>
      <trkpt lat="47.697996832430363" lon="12.242381209507585">
        <ele>1066.719970703125</ele>
        <time>2013-02-24T11:31:23Z</time>
      </trkpt>
      <trkpt lat="47.698060870170593" lon="12.242351956665516">
        <ele>1068.162109375</ele>
        <time>2013-02-24T11:31:35Z</time>
      </trkpt>
      <trkpt lat="47.698129517957568" lon="12.242328319698572">
        <ele>1070.084716796875</ele>
        <time>2013-02-24T11:31:48Z</time>
      </trkpt>
      <trkpt lat="47.698174361139536" lon="12.242395794019103">
        <ele>1072.488037109375</ele>
        <time>2013-02-24T11:32:04Z</time>
      </trkpt>
      <trkpt lat="47.698178887367249" lon="12.242523282766342">
        <ele>1074.891357421875</ele>
        <time>2013-02-24T11:32:22Z</time>
      </trkpt>
      <trkpt lat="47.69821660593152" lon="12.242620680481195">
        <ele>1076.81396484375</ele>
        <time>2013-02-24T11:32:37Z</time>
      </trkpt>
      <trkpt lat="47.698276368901134" lon="12.242591511458158">
        <ele>1079.217041015625</ele>
        <time>2013-02-24T11:32:48Z</time>
      </trkpt>
      <trkpt lat="47.698318110778928" lon="12.242662254720926">
        <ele>1080.6591796875</ele>
        <time>2013-02-24T11:33:02Z</time>
      </trkpt>
      <trkpt lat="47.698377454653382" lon="12.242656638845801">
        <ele>1084.02392578125</ele>
        <time>2013-02-24T11:33:15Z</time>
      </trkpt>
      <trkpt lat="47.698459094390273" lon="12.242657477036119">
        <ele>1085.946533203125</ele>
        <time>2013-02-24T11:33:30Z</time>
      </trkpt>
      <trkpt lat="47.69849362783134" lon="12.242686562240124">
        <ele>1087.388427734375</ele>
        <time>2013-02-24T11:33:36Z</time>
      </trkpt>
      <trkpt lat="47.698494885116816" lon="12.242690501734614">
        <ele>1087.388427734375</ele>
        <time>2013-02-24T11:33:55Z</time>
      </trkpt>
      <trkpt lat="47.698494801297784" lon="12.242689412087202">
        <ele>1087.869140625</ele>
        <time>2013-02-24T11:34:25Z</time>
      </trkpt>
      <trkpt lat="47.698496477678418" lon="12.242690166458488">
        <ele>1088.349853515625</ele>
        <time>2013-02-24T11:34:45Z</time>
      </trkpt>
      <trkpt lat="47.698495388031006" lon="12.242687316611409">
        <ele>1088.349853515625</ele>
        <time>2013-02-24T11:35:04Z</time>
      </trkpt>
      <trkpt lat="47.698498824611306" lon="12.242690920829773">
        <ele>1087.869140625</ele>
        <time>2013-02-24T11:36:42Z</time>
      </trkpt>
      <trkpt lat="47.698523886501789" lon="12.242699721828103">
        <ele>1087.388427734375</ele>
        <time>2013-02-24T11:38:02Z</time>
      </trkpt>
      <trkpt lat="47.698651375249028" lon="12.242702823132277">
        <ele>1089.791748046875</ele>
        <time>2013-02-24T11:38:18Z</time>
      </trkpt>
      <trkpt lat="47.698727315291762" lon="12.242737440392375">
        <ele>1092.67578125</ele>
        <time>2013-02-24T11:38:31Z</time>
      </trkpt>
      <trkpt lat="47.698823288083076" lon="12.242787983268499">
        <ele>1094.59814453125</ele>
        <time>2013-02-24T11:38:49Z</time>
      </trkpt>
      <trkpt lat="47.698845500126481" lon="12.242797371000051">
        <ele>1096.040283203125</ele>
        <time>2013-02-24T11:38:52Z</time>
      </trkpt>
      <trkpt lat="47.698951028287411" lon="12.242848500609398">
        <ele>1099.40478515625</ele>
        <time>2013-02-24T11:39:11Z</time>
      </trkpt>
      <trkpt lat="47.699022190645337" lon="12.242809189483523">
        <ele>1101.32763671875</ele>
        <time>2013-02-24T11:39:23Z</time>
      </trkpt>
      <trkpt lat="47.699059406295419" lon="12.242841711267829">
        <ele>1103.73095703125</ele>
        <time>2013-02-24T11:39:36Z</time>
      </trkpt>
      <trkpt lat="47.699095280840993" lon="12.242904575541615">
        <ele>1106.134033203125</ele>
        <time>2013-02-24T11:39:49Z</time>
      </trkpt>
      <trkpt lat="47.699106764048338" lon="12.242917399853468">
        <ele>1107.095458984375</ele>
        <time>2013-02-24T11:39:59Z</time>
      </trkpt>
      <trkpt lat="47.699124030768871" lon="12.242941791191697">
        <ele>1108.056884765625</ele>
        <time>2013-02-24T11:40:08Z</time>
      </trkpt>
      <trkpt lat="47.699151858687401" lon="12.24289451725781">
        <ele>1109.498779296875</ele>
        <time>2013-02-24T11:40:18Z</time>
      </trkpt>
      <trkpt lat="47.699192510917783" lon="12.242940785363317">
        <ele>1111.42138671875</ele>
        <time>2013-02-24T11:40:28Z</time>
      </trkpt>
      <trkpt lat="47.699281275272369" lon="12.242998452857137">
        <ele>1114.30517578125</ele>
        <time>2013-02-24T11:40:41Z</time>
      </trkpt>
      <trkpt lat="47.699392754584551" lon="12.242988729849458">
        <ele>1116.22802734375</ele>
        <time>2013-02-24T11:40:55Z</time>
      </trkpt>
      <trkpt lat="47.699476154521108" lon="12.243030723184347">
        <ele>1118.150634765625</ele>
        <time>2013-02-24T11:41:08Z</time>
      </trkpt>
      <trkpt lat="47.699550585821271" lon="12.243035417050123">
        <ele>1121.03466796875</ele>
        <time>2013-02-24T11:41:22Z</time>
      </trkpt>
      <trkpt lat="47.699631471186876" lon="12.243061065673828">
        <ele>1123.43798828125</ele>
        <time>2013-02-24T11:41:35Z</time>
      </trkpt>
      <trkpt lat="47.699728282168508" lon="12.243118900805712">
        <ele>1124.8798828125</ele>
        <time>2013-02-24T11:41:51Z</time>
      </trkpt>
      <trkpt lat="47.699848059564829" lon="12.243120325729251">
        <ele>1127.283203125</ele>
        <time>2013-02-24T11:42:09Z</time>
      </trkpt>
      <trkpt lat="47.699931208044291" lon="12.243114793673158">
        <ele>1130.647705078125</ele>
        <time>2013-02-24T11:42:26Z</time>
      </trkpt>
      <trkpt lat="47.700018966570497" lon="12.243111776188016">
        <ele>1133.53173828125</ele>
        <time>2013-02-24T11:42:42Z</time>
      </trkpt>
      <trkpt lat="47.700108401477337" lon="12.243116972967982">
        <ele>1136.896240234375</ele>
        <time>2013-02-24T11:42:57Z</time>
      </trkpt>
      <trkpt lat="47.700220970436931" lon="12.243104986846447">
        <ele>1139.7802734375</ele>
        <time>2013-02-24T11:43:16Z</time>
      </trkpt>
      <trkpt lat="47.700285678729415" lon="12.243126193061471">
        <ele>1142.18359375</ele>
        <time>2013-02-24T11:43:29Z</time>
      </trkpt>
      <trkpt lat="47.700322642922401" lon="12.243243623524904">
        <ele>1145.0673828125</ele>
        <time>2013-02-24T11:43:46Z</time>
      </trkpt>
      <trkpt lat="47.70038072951138" lon="12.243338087573647">
        <ele>1146.989990234375</ele>
        <time>2013-02-24T11:44:02Z</time>
      </trkpt>
      <trkpt lat="47.70045205950737" lon="12.243345882743597">
        <ele>1148.912841796875</ele>
        <time>2013-02-24T11:44:18Z</time>
      </trkpt>
      <trkpt lat="47.700443426147103" lon="12.243346888571978">
        <ele>1149.874267578125</ele>
        <time>2013-02-24T11:44:31Z</time>
      </trkpt>
      <trkpt lat="47.700485419481993" lon="12.243378320708871">
        <ele>1151.316162109375</ele>
        <time>2013-02-24T11:44:47Z</time>
      </trkpt>
      <trkpt lat="47.700520204380155" lon="12.243391731753945">
        <ele>1153.23876953125</ele>
        <time>2013-02-24T11:45:00Z</time>
      </trkpt>
      <trkpt lat="47.700568484142423" lon="12.243410591036081">
        <ele>1154.2001953125</ele>
        <time>2013-02-24T11:45:09Z</time>
      </trkpt>
      <trkpt lat="47.70063478499651" lon="12.243429701775312">
        <ele>1156.12255859375</ele>
        <time>2013-02-24T11:45:21Z</time>
      </trkpt>
      <trkpt lat="47.700693039223552" lon="12.243459960445762">
        <ele>1159.4873046875</ele>
        <time>2013-02-24T11:45:32Z</time>
      </trkpt>
      <trkpt lat="47.700754059478641" lon="12.243474293500185">
        <ele>1160.92919921875</ele>
        <time>2013-02-24T11:45:44Z</time>
      </trkpt>
      <trkpt lat="47.700831340625882" lon="12.24347404204309">
        <ele>1164.774658203125</ele>
        <time>2013-02-24T11:45:59Z</time>
      </trkpt>
      <trkpt lat="47.700937036424875" lon="12.243398940190673">
        <ele>1168.13916015625</ele>
        <time>2013-02-24T11:46:19Z</time>
      </trkpt>
      <trkpt lat="47.700983136892319" lon="12.243414530530572">
        <ele>1169.1005859375</ele>
        <time>2013-02-24T11:46:30Z</time>
      </trkpt>
      <trkpt lat="47.701087072491646" lon="12.24345501512289">
        <ele>1172.465087890625</ele>
        <time>2013-02-24T11:46:47Z</time>
      </trkpt>
      <trkpt lat="47.701109452173114" lon="12.24346918053925">
        <ele>1172.465087890625</ele>
        <time>2013-02-24T11:46:59Z</time>
      </trkpt>
      <trkpt lat="47.701109452173114" lon="12.243470102548599">
        <ele>1171.503662109375</ele>
        <time>2013-02-24T11:47:21Z</time>
      </trkpt>
      <trkpt lat="47.701156223192811" lon="12.243500780314207">
        <ele>1173.426513671875</ele>
        <time>2013-02-24T11:48:28Z</time>
      </trkpt>
      <trkpt lat="47.701289243996143" lon="12.24362407810986">
        <ele>1176.791015625</ele>
        <time>2013-02-24T11:48:51Z</time>
      </trkpt>
      <trkpt lat="47.701368033885956" lon="12.243729773908854">
        <ele>1180.15576171875</ele>
        <time>2013-02-24T11:49:11Z</time>
      </trkpt>
      <trkpt lat="47.701452355831861" lon="12.243848126381636">
        <ele>1183.03955078125</ele>
        <time>2013-02-24T11:49:30Z</time>
      </trkpt>
      <trkpt lat="47.701510190963745" lon="12.243954408913851">
        <ele>1184.96240234375</ele>
        <time>2013-02-24T11:49:46Z</time>
      </trkpt>
      <trkpt lat="47.701551849022508" lon="12.244039233773947">
        <ele>1188.8076171875</ele>
        <time>2013-02-24T11:50:01Z</time>
      </trkpt>
      <trkpt lat="47.701603313907981" lon="12.244124729186296">
        <ele>1192.172119140625</ele>
        <time>2013-02-24T11:50:17Z</time>
      </trkpt>
      <trkpt lat="47.701675314456224" lon="12.244220534339547">
        <ele>1195.055908203125</ele>
        <time>2013-02-24T11:50:35Z</time>
      </trkpt>
      <trkpt lat="47.70174253731966" lon="12.244338551536202">
        <ele>1198.9013671875</ele>
        <time>2013-02-24T11:50:56Z</time>
      </trkpt>
      <trkpt lat="47.701807161793113" lon="12.244444163516164">
        <ele>1201.785400390625</ele>
        <time>2013-02-24T11:51:13Z</time>
      </trkpt>
      <trkpt lat="47.701881425455213" lon="12.244558660313487">
        <ele>1205.14990234375</ele>
        <time>2013-02-24T11:51:33Z</time>
      </trkpt>
      <trkpt lat="47.701951917260885" lon="12.244660332798958">
        <ele>1208.514404296875</ele>
        <time>2013-02-24T11:51:50Z</time>
      </trkpt>
      <trkpt lat="47.701955856755376" lon="12.2446667868644">
        <ele>1208.514404296875</ele>
        <time>2013-02-24T11:51:51Z</time>
      </trkpt>
      <trkpt lat="47.702060798183084" lon="12.244815230369568">
        <ele>1210.917724609375</ele>
        <time>2013-02-24T11:52:16Z</time>
      </trkpt>
      <trkpt lat="47.702102204784751" lon="12.244866862893105">
        <ele>1214.282470703125</ele>
        <time>2013-02-24T11:52:27Z</time>
      </trkpt>
      <trkpt lat="47.702189460396767" lon="12.24498781375587">
        <ele>1217.64697265625</ele>
        <time>2013-02-24T11:52:50Z</time>
      </trkpt>
      <trkpt lat="47.702224412932992" lon="12.245029304176569">
        <ele>1219.089111328125</ele>
        <time>2013-02-24T11:52:58Z</time>
      </trkpt>
      <trkpt lat="47.702305382117629" lon="12.245136424899101">
        <ele>1222.45361328125</ele>
        <time>2013-02-24T11:53:19Z</time>
      </trkpt>
      <trkpt lat="47.702369755133986" lon="12.245224183425307">
        <ele>1225.33740234375</ele>
        <time>2013-02-24T11:53:37Z</time>
      </trkpt>
      <trkpt lat="47.702443264424801" lon="12.245328035205603">
        <ele>1228.702392578125</ele>
        <time>2013-02-24T11:53:56Z</time>
      </trkpt>
      <trkpt lat="47.702475199475884" lon="12.245371453464031">
        <ele>1229.66357421875</ele>
        <time>2013-02-24T11:54:09Z</time>
      </trkpt>
      <trkpt lat="47.702553402632475" lon="12.245497601106763">
        <ele>1233.028076171875</ele>
        <time>2013-02-24T11:54:28Z</time>
      </trkpt>
      <trkpt lat="47.702624145895243" lon="12.245616791769862">
        <ele>1236.392822265625</ele>
        <time>2013-02-24T11:54:48Z</time>
      </trkpt>
      <trkpt lat="47.702719699591398" lon="12.245770012959838">
        <ele>1239.75732421875</ele>
        <time>2013-02-24T11:55:14Z</time>
      </trkpt>
      <trkpt lat="47.702816845849156" lon="12.24589909426868">
        <ele>1243.121826171875</ele>
        <time>2013-02-24T11:55:36Z</time>
      </trkpt>
      <trkpt lat="47.70290351472795" lon="12.246019877493382">
        <ele>1246.96728515625</ele>
        <time>2013-02-24T11:55:56Z</time>
      </trkpt>
      <trkpt lat="47.702980460599065" lon="12.246121047064662">
        <ele>1249.851318359375</ele>
        <time>2013-02-24T11:56:13Z</time>
      </trkpt>
      <trkpt lat="47.703007953241467" lon="12.246156586334109">
        <ele>1250.33203125</ele>
        <time>2013-02-24T11:56:19Z</time>
      </trkpt>
      <trkpt lat="47.703132759779692" lon="12.246316429227591">
        <ele>1253.696533203125</ele>
        <time>2013-02-24T11:56:43Z</time>
      </trkpt>
      <trkpt lat="47.703206101432443" lon="12.246410055086017">
        <ele>1256.580322265625</ele>
        <time>2013-02-24T11:56:58Z</time>
      </trkpt>
      <trkpt lat="47.703296206891537" lon="12.246532179415226">
        <ele>1259.94482421875</ele>
        <time>2013-02-24T11:57:18Z</time>
      </trkpt>
      <trkpt lat="47.703370889648795" lon="12.246640976518393">
        <ele>1263.309814453125</ele>
        <time>2013-02-24T11:57:36Z</time>
      </trkpt>
      <trkpt lat="47.703448925167322" lon="12.246771147474647">
        <ele>1266.67431640625</ele>
        <time>2013-02-24T11:57:57Z</time>
      </trkpt>
      <trkpt lat="47.70350500009954" lon="12.246822444722056">
        <ele>1267.635498046875</ele>
        <time>2013-02-24T11:58:13Z</time>
      </trkpt>
      <trkpt lat="47.703508855774999" lon="12.246823785826564">
        <ele>1267.155029296875</ele>
        <time>2013-02-24T11:58:31Z</time>
      </trkpt>
      <trkpt lat="47.703516902402043" lon="12.246830491349101">
        <ele>1267.155029296875</ele>
        <time>2013-02-24T11:58:55Z</time>
      </trkpt>
      <trkpt lat="47.703514974564314" lon="12.246830072253942">
        <ele>1267.155029296875</ele>
        <time>2013-02-24T11:59:16Z</time>
      </trkpt>
      <trkpt lat="47.703508520498872" lon="12.246833173558116">
        <ele>1266.67431640625</ele>
        <time>2013-02-24T11:59:29Z</time>
      </trkpt>
      <trkpt lat="47.703516064211726" lon="12.246830994263291">
        <ele>1266.67431640625</ele>
        <time>2013-02-24T12:00:43Z</time>
      </trkpt>
      <trkpt lat="47.703513717278838" lon="12.246832754462957">
        <ele>1265.713134765625</ele>
        <time>2013-02-24T12:01:04Z</time>
      </trkpt>
      <trkpt lat="47.703511454164982" lon="12.246851613745093">
        <ele>1266.193603515625</ele>
        <time>2013-02-24T12:01:13Z</time>
      </trkpt>
      <trkpt lat="47.703535594046116" lon="12.247086139395833">
        <ele>1267.635498046875</ele>
        <time>2013-02-24T12:01:32Z</time>
      </trkpt>
      <trkpt lat="47.703592088073492" lon="12.247469946742058">
        <ele>1271.000244140625</ele>
        <time>2013-02-24T12:02:03Z</time>
      </trkpt>
      <trkpt lat="47.703659143298864" lon="12.247654432430863">
        <ele>1271.480712890625</ele>
        <time>2013-02-24T12:02:19Z</time>
      </trkpt>
      <trkpt lat="47.703751008957624" lon="12.247828105464578">
        <ele>1272.9228515625</ele>
        <time>2013-02-24T12:02:35Z</time>
      </trkpt>
      <trkpt lat="47.70385536365211" lon="12.247965987771749">
        <ele>1274.36474609375</ele>
        <time>2013-02-24T12:02:51Z</time>
      </trkpt>
      <trkpt lat="47.70401612855494" lon="12.248115604743361">
        <ele>1277.2490234375</ele>
        <time>2013-02-24T12:03:15Z</time>
      </trkpt>
      <trkpt lat="47.70418125204742" lon="12.248232616111636">
        <ele>1279.17138671875</ele>
        <time>2013-02-24T12:03:37Z</time>
      </trkpt>
      <trkpt lat="47.704289630055428" lon="12.248278548941016">
        <ele>1282.055419921875</ele>
        <time>2013-02-24T12:03:54Z</time>
      </trkpt>
      <trkpt lat="47.704406306147575" lon="12.248321129009128">
        <ele>1284.939453125</ele>
        <time>2013-02-24T12:04:12Z</time>
      </trkpt>
      <trkpt lat="47.704484257847071" lon="12.248355578631163">
        <ele>1287.8232421875</ele>
        <time>2013-02-24T12:04:25Z</time>
      </trkpt>
      <trkpt lat="47.704582242295146" lon="12.248419197276235">
        <ele>1290.70703125</ele>
        <time>2013-02-24T12:04:43Z</time>
      </trkpt>
      <trkpt lat="47.704654997214675" lon="12.248362870886922">
        <ele>1293.59130859375</ele>
        <time>2013-02-24T12:04:58Z</time>
      </trkpt>
      <trkpt lat="47.704705959185958" lon="12.248217277228832">
        <ele>1296.955810546875</ele>
        <time>2013-02-24T12:05:15Z</time>
      </trkpt>
      <trkpt lat="47.704738397151232" lon="12.24811795167625">
        <ele>1299.83984375</ele>
        <time>2013-02-24T12:05:29Z</time>
      </trkpt>
      <trkpt lat="47.704715682193637" lon="12.248025583103299">
        <ele>1302.242919921875</ele>
        <time>2013-02-24T12:05:42Z</time>
      </trkpt>
      <trkpt lat="47.704747784882784" lon="12.247924664989114">
        <ele>1305.126953125</ele>
        <time>2013-02-24T12:05:56Z</time>
      </trkpt>
      <trkpt lat="47.704784413799644" lon="12.247902872040868">
        <ele>1306.56884765625</ele>
        <time>2013-02-24T12:06:07Z</time>
      </trkpt>
      <trkpt lat="47.704843422397971" lon="12.248012842610478">
        <ele>1309.453125</ele>
        <time>2013-02-24T12:06:24Z</time>
      </trkpt>
      <trkpt lat="47.704879296943545" lon="12.248180396854877">
        <ele>1312.3369140625</ele>
        <time>2013-02-24T12:06:44Z</time>
      </trkpt>
      <trkpt lat="47.704929253086448" lon="12.248390112072229">
        <ele>1315.70166015625</ele>
        <time>2013-02-24T12:07:07Z</time>
      </trkpt>
      <trkpt lat="47.704964624717832" lon="12.248500501736999">
        <ele>1317.6240234375</ele>
        <time>2013-02-24T12:07:21Z</time>
      </trkpt>
      <trkpt lat="47.705025393515825" lon="12.248629415407777">
        <ele>1319.066162109375</ele>
        <time>2013-02-24T12:07:38Z</time>
      </trkpt>
      <trkpt lat="47.705052802339196" lon="12.248628241941333">
        <ele>1319.546875</ele>
        <time>2013-02-24T12:07:48Z</time>
      </trkpt>
      <trkpt lat="47.705053053796291" lon="12.248561186715961">
        <ele>1320.508056640625</ele>
        <time>2013-02-24T12:07:55Z</time>
      </trkpt>
      <trkpt lat="47.705059172585607" lon="12.248439900577068">
        <ele>1321.46923828125</ele>
        <time>2013-02-24T12:08:06Z</time>
      </trkpt>
      <trkpt lat="47.705073589459062" lon="12.248299419879913">
        <ele>1323.87255859375</ele>
        <time>2013-02-24T12:08:20Z</time>
      </trkpt>
      <trkpt lat="47.70509990863502" lon="12.248142343014479">
        <ele>1326.276123046875</ele>
        <time>2013-02-24T12:08:37Z</time>
      </trkpt>
      <trkpt lat="47.705141063779593" lon="12.247986355796456">
        <ele>1329.159912109375</ele>
        <time>2013-02-24T12:08:55Z</time>
      </trkpt>
      <trkpt lat="47.705188589170575" lon="12.247859537601471">
        <ele>1331.563232421875</ele>
        <time>2013-02-24T12:09:11Z</time>
      </trkpt>
      <trkpt lat="47.705228989943862" lon="12.247764067724347">
        <ele>1334.927978515625</ele>
        <time>2013-02-24T12:09:23Z</time>
      </trkpt>
      <trkpt lat="47.705275593325496" lon="12.247661221772432">
        <ele>1336.369873046875</ele>
        <time>2013-02-24T12:09:36Z</time>
      </trkpt>
      <trkpt lat="47.70532806403935" lon="12.247568098828197">
        <ele>1338.29248046875</ele>
        <time>2013-02-24T12:09:49Z</time>
      </trkpt>
      <trkpt lat="47.705380953848362" lon="12.247483106330037">
        <ele>1340.21533203125</ele>
        <time>2013-02-24T12:10:01Z</time>
      </trkpt>
      <trkpt lat="47.705451361835003" lon="12.247378919273615">
        <ele>1342.137939453125</ele>
        <time>2013-02-24T12:10:17Z</time>
      </trkpt>
      <trkpt lat="47.705505089834332" lon="12.24730440415442">
        <ele>1344.060546875</ele>
        <time>2013-02-24T12:10:28Z</time>
      </trkpt>
      <trkpt lat="47.705571306869388" lon="12.247225111350417">
        <ele>1346.4638671875</ele>
        <time>2013-02-24T12:10:43Z</time>
      </trkpt>
      <trkpt lat="47.705605756491423" lon="12.247265093028545">
        <ele>1347.425048828125</ele>
        <time>2013-02-24T12:10:53Z</time>
      </trkpt>
      <trkpt lat="47.705658562481403" lon="12.247326532378793">
        <ele>1350.30908203125</ele>
        <time>2013-02-24T12:11:06Z</time>
      </trkpt>
      <trkpt lat="47.705702735111117" lon="12.247385373339057">
        <ele>1351.7509765625</ele>
        <time>2013-02-24T12:11:18Z</time>
      </trkpt>
      <trkpt lat="47.705752355977893" lon="12.247467683628201">
        <ele>1355.115478515625</ele>
        <time>2013-02-24T12:11:32Z</time>
      </trkpt>
      <trkpt lat="47.705806167796254" lon="12.247563740238547">
        <ele>1357.038330078125</ele>
        <time>2013-02-24T12:11:48Z</time>
      </trkpt>
      <trkpt lat="47.705847825855017" lon="12.247630041092634">
        <ele>1360.40283203125</ele>
        <time>2013-02-24T12:12:00Z</time>
      </trkpt>
      <trkpt lat="47.705903397873044" lon="12.247708830982447">
        <ele>1361.844970703125</ele>
        <time>2013-02-24T12:12:14Z</time>
      </trkpt>
      <trkpt lat="47.705955533310771" lon="12.247783094644547">
        <ele>1365.20947265625</ele>
        <time>2013-02-24T12:12:27Z</time>
      </trkpt>
      <trkpt lat="47.70599752664566" lon="12.247855011373758">
        <ele>1367.612548828125</ele>
        <time>2013-02-24T12:12:39Z</time>
      </trkpt>
      <trkpt lat="47.706049662083387" lon="12.247924748808146">
        <ele>1370.015869140625</ele>
        <time>2013-02-24T12:12:55Z</time>
      </trkpt>
      <trkpt lat="47.706100204959512" lon="12.24800462834537">
        <ele>1373.380859375</ele>
        <time>2013-02-24T12:13:11Z</time>
      </trkpt>
      <trkpt lat="47.706151837483048" lon="12.248099092394114">
        <ele>1376.745361328125</ele>
        <time>2013-02-24T12:13:26Z</time>
      </trkpt>
      <trkpt lat="47.706200452521443" lon="12.248197831213474">
        <ele>1380.10986328125</ele>
        <time>2013-02-24T12:13:41Z</time>
      </trkpt>
      <trkpt lat="47.70626574754715" lon="12.248285925015807">
        <ele>1382.99365234375</ele>
        <time>2013-02-24T12:13:56Z</time>
      </trkpt>
      <trkpt lat="47.706333976238966" lon="12.248358177021146">
        <ele>1386.3583984375</ele>
        <time>2013-02-24T12:14:10Z</time>
      </trkpt>
      <trkpt lat="47.706375801935792" lon="12.248403439298272">
        <ele>1387.319580078125</ele>
        <time>2013-02-24T12:14:23Z</time>
      </trkpt>
      <trkpt lat="47.706384854391217" lon="12.248373180627823">
        <ele>1388.28125</ele>
        <time>2013-02-24T12:14:31Z</time>
      </trkpt>
      <trkpt lat="47.706389799714088" lon="12.248338647186756">
        <ele>1388.761962890625</ele>
        <time>2013-02-24T12:14:41Z</time>
      </trkpt>
      <trkpt lat="47.706384183838964" lon="12.248296486213803">
        <ele>1389.242431640625</ele>
        <time>2013-02-24T12:14:52Z</time>
      </trkpt>
      <trkpt lat="47.706407820805907" lon="12.248166399076581">
        <ele>1391.645751953125</ele>
        <time>2013-02-24T12:15:06Z</time>
      </trkpt>
      <trkpt lat="47.706440929323435" lon="12.248052740469575">
        <ele>1394.049072265625</ele>
        <time>2013-02-24T12:15:21Z</time>
      </trkpt>
      <trkpt lat="47.706454927101731" lon="12.247966239228845">
        <ele>1396.932861328125</ele>
        <time>2013-02-24T12:15:33Z</time>
      </trkpt>
      <trkpt lat="47.706469343975186" lon="12.247925503179431">
        <ele>1397.894287109375</ele>
        <time>2013-02-24T12:15:43Z</time>
      </trkpt>
      <trkpt lat="47.706489879637957" lon="12.247863225638866">
        <ele>1400.297607421875</ele>
        <time>2013-02-24T12:15:55Z</time>
      </trkpt>
      <trkpt lat="47.706528101116419" lon="12.247768007218838">
        <ele>1403.662109375</ele>
        <time>2013-02-24T12:16:10Z</time>
      </trkpt>
      <trkpt lat="47.706567076966166" lon="12.247711010277271">
        <ele>1404.62353515625</ele>
        <time>2013-02-24T12:16:22Z</time>
      </trkpt>
      <trkpt lat="47.706598760560155" lon="12.247682763263583">
        <ele>1406.0654296875</ele>
        <time>2013-02-24T12:16:35Z</time>
      </trkpt>
      <trkpt lat="47.706596832722425" lon="12.247682176530361">
        <ele>1406.546142578125</ele>
        <time>2013-02-24T12:16:43Z</time>
      </trkpt>
      <trkpt lat="47.706599766388535" lon="12.247713524848223">
        <ele>1407.98828125</ele>
        <time>2013-02-24T12:16:50Z</time>
      </trkpt>
      <trkpt lat="47.706632371991873" lon="12.247801786288619">
        <ele>1409.91064453125</ele>
        <time>2013-02-24T12:17:05Z</time>
      </trkpt>
      <trkpt lat="47.706685764715075" lon="12.247758116573095">
        <ele>1412.31396484375</ele>
        <time>2013-02-24T12:17:16Z</time>
      </trkpt>
      <trkpt lat="47.706727255135775" lon="12.247733725234866">
        <ele>1413.275390625</ele>
        <time>2013-02-24T12:17:30Z</time>
      </trkpt>
      <trkpt lat="47.706737229600549" lon="12.247791728004813">
        <ele>1415.197998046875</ele>
        <time>2013-02-24T12:17:41Z</time>
      </trkpt>
      <trkpt lat="47.706734966486692" lon="12.247814023867249">
        <ele>1415.6787109375</ele>
        <time>2013-02-24T12:17:57Z</time>
      </trkpt>
      <trkpt lat="47.70674510858953" lon="12.247875044122338">
        <ele>1417.12060546875</ele>
        <time>2013-02-24T12:18:07Z</time>
      </trkpt>
      <trkpt lat="47.706765895709395" lon="12.247900273650885">
        <ele>1418.081787109375</ele>
        <time>2013-02-24T12:18:13Z</time>
      </trkpt>
      <trkpt lat="47.7068105712533" lon="12.247937740758061">
        <ele>1419.52392578125</ele>
        <time>2013-02-24T12:18:22Z</time>
      </trkpt>
      <trkpt lat="47.706846864894032" lon="12.248019464313984">
        <ele>1421.92724609375</ele>
        <time>2013-02-24T12:18:33Z</time>
      </trkpt>
      <trkpt lat="47.706838063895702" lon="12.248048381879926">
        <ele>1421.92724609375</ele>
        <time>2013-02-24T12:18:45Z</time>
      </trkpt>
      <trkpt lat="47.70688240416348" lon="12.248119292780757">
        <ele>1423.849853515625</ele>
        <time>2013-02-24T12:18:58Z</time>
      </trkpt>
      <trkpt lat="47.706943256780505" lon="12.248220127075911">
        <ele>1426.253173828125</ele>
        <time>2013-02-24T12:19:14Z</time>
      </trkpt>
      <trkpt lat="47.70700603723526" lon="12.248291624709964">
        <ele>1429.61767578125</ele>
        <time>2013-02-24T12:19:30Z</time>
      </trkpt>
      <trkpt lat="47.707031602039933" lon="12.248248877003789">
        <ele>1430.098388671875</ele>
        <time>2013-02-24T12:19:39Z</time>
      </trkpt>
      <trkpt lat="47.707066303119063" lon="12.24819372408092">
        <ele>1431.059814453125</ele>
        <time>2013-02-24T12:19:48Z</time>
      </trkpt>
      <trkpt lat="47.707107961177826" lon="12.248124908655882">
        <ele>1432.982177734375</ele>
        <time>2013-02-24T12:20:00Z</time>
      </trkpt>
      <trkpt lat="47.707170825451612" lon="12.248027510941029">
        <ele>1435.8662109375</ele>
        <time>2013-02-24T12:20:17Z</time>
      </trkpt>
      <trkpt lat="47.707262691110373" lon="12.247910751029849">
        <ele>1439.711669921875</ele>
        <time>2013-02-24T12:20:39Z</time>
      </trkpt>
      <trkpt lat="47.707383893430233" lon="12.247818885371089">
        <ele>1442.114990234375</ele>
        <time>2013-02-24T12:21:04Z</time>
      </trkpt>
      <trkpt lat="47.707497216761112" lon="12.247762391343713">
        <ele>1445.4794921875</ele>
        <time>2013-02-24T12:21:26Z</time>
      </trkpt>
      <trkpt lat="47.70751079544425" lon="12.247746298089623">
        <ele>1445.4794921875</ele>
        <time>2013-02-24T12:21:38Z</time>
      </trkpt>
      <trkpt lat="47.707530157640576" lon="12.247748728841543">
        <ele>1444.998779296875</ele>
        <time>2013-02-24T12:22:06Z</time>
      </trkpt>
      <trkpt lat="47.70761682651937" lon="12.247698521241546">
        <ele>1448.36328125</ele>
        <time>2013-02-24T12:22:22Z</time>
      </trkpt>
      <trkpt lat="47.707712380215526" lon="12.247646301984787">
        <ele>1451.247314453125</ele>
        <time>2013-02-24T12:22:41Z</time>
      </trkpt>
      <trkpt lat="47.70781665109098" lon="12.247623419389129">
        <ele>1454.612060546875</ele>
        <time>2013-02-24T12:23:04Z</time>
      </trkpt>
      <trkpt lat="47.707924442365766" lon="12.247604560106993">
        <ele>1457.976806640625</ele>
        <time>2013-02-24T12:23:25Z</time>
      </trkpt>
      <trkpt lat="47.708000717684627" lon="12.247586874291301">
        <ele>1460.860595703125</ele>
        <time>2013-02-24T12:23:41Z</time>
      </trkpt>
      <trkpt lat="47.708098785951734" lon="12.24755896255374">
        <ele>1463.744384765625</ele>
        <time>2013-02-24T12:23:58Z</time>
      </trkpt>
      <trkpt lat="47.70818067714572" lon="12.247523171827197">
        <ele>1466.62841796875</ele>
        <time>2013-02-24T12:24:12Z</time>
      </trkpt>
      <trkpt lat="47.708284026011825" lon="12.247484363615513">
        <ele>1469.9931640625</ele>
        <time>2013-02-24T12:24:30Z</time>
      </trkpt>
      <trkpt lat="47.708378322422504" lon="12.247473886236548">
        <ele>1472.877197265625</ele>
        <time>2013-02-24T12:24:49Z</time>
      </trkpt>
      <trkpt lat="47.708431715145707" lon="12.247470198199153">
        <ele>1475.760986328125</ele>
        <time>2013-02-24T12:25:00Z</time>
      </trkpt>
      <trkpt lat="47.708476139232516" lon="12.247501043602824">
        <ele>1477.203125</ele>
        <time>2013-02-24T12:25:14Z</time>
      </trkpt>
      <trkpt lat="47.708537075668573" lon="12.247551921755075">
        <ele>1481.04833984375</ele>
        <time>2013-02-24T12:25:29Z</time>
      </trkpt>
      <trkpt lat="47.708577141165733" lon="12.247588215395808">
        <ele>1482.009521484375</ele>
        <time>2013-02-24T12:25:42Z</time>
      </trkpt>
      <trkpt lat="47.708624415099621" lon="12.247618893161416">
        <ele>1485.374267578125</ele>
        <time>2013-02-24T12:25:55Z</time>
      </trkpt>
      <trkpt lat="47.708666659891605" lon="12.247665077447891">
        <ele>1486.816162109375</ele>
        <time>2013-02-24T12:26:11Z</time>
      </trkpt>
      <trkpt lat="47.708681747317314" lon="12.247706986963749">
        <ele>1488.739013671875</ele>
        <time>2013-02-24T12:26:23Z</time>
      </trkpt>
      <trkpt lat="47.708723237738013" lon="12.247795416042209">
        <ele>1490.661376953125</ele>
        <time>2013-02-24T12:26:38Z</time>
      </trkpt>
      <trkpt lat="47.708750562742352" lon="12.247872781008482">
        <ele>1493.54541015625</ele>
        <time>2013-02-24T12:26:49Z</time>
      </trkpt>
      <trkpt lat="47.708740001544356" lon="12.247966071590781">
        <ele>1494.9873046875</ele>
        <time>2013-02-24T12:27:01Z</time>
      </trkpt>
      <trkpt lat="47.708730865269899" lon="12.248065816238523">
        <ele>1496.909912109375</ele>
        <time>2013-02-24T12:27:16Z</time>
      </trkpt>
      <trkpt lat="47.708734720945358" lon="12.248195065185428">
        <ele>1499.7939453125</ele>
        <time>2013-02-24T12:27:35Z</time>
      </trkpt>
      <trkpt lat="47.708762129768729" lon="12.248184001073241">
        <ele>1500.27490234375</ele>
        <time>2013-02-24T12:27:42Z</time>
      </trkpt>
      <trkpt lat="47.708778558298945" lon="12.248182995244861">
        <ele>1500.27490234375</ele>
        <time>2013-02-24T12:27:49Z</time>
      </trkpt>
      <trkpt lat="47.708762129768729" lon="12.24827092140913">
        <ele>1501.716796875</ele>
        <time>2013-02-24T12:27:59Z</time>
      </trkpt>
      <trkpt lat="47.708752658218145" lon="12.248327163979411">
        <ele>1502.677978515625</ele>
        <time>2013-02-24T12:28:12Z</time>
      </trkpt>
      <trkpt lat="47.708762381225824" lon="12.248441576957703">
        <ele>1506.04248046875</ele>
        <time>2013-02-24T12:28:28Z</time>
      </trkpt>
      <trkpt lat="47.708774283528328" lon="12.248603766784072">
        <ele>1507.484619140625</ele>
        <time>2013-02-24T12:28:43Z</time>
      </trkpt>
      <trkpt lat="47.708777133375406" lon="12.248625727370381">
        <ele>1508.926513671875</ele>
        <time>2013-02-24T12:28:46Z</time>
      </trkpt>
      <trkpt lat="47.708799345418811" lon="12.248781379312277">
        <ele>1510.84912109375</ele>
        <time>2013-02-24T12:29:04Z</time>
      </trkpt>
      <trkpt lat="47.708801524713635" lon="12.248795460909605">
        <ele>1511.810546875</ele>
        <time>2013-02-24T12:29:06Z</time>
      </trkpt>
      <trkpt lat="47.708867322653532" lon="12.248875256627798">
        <ele>1514.6943359375</ele>
        <time>2013-02-24T12:29:22Z</time>
      </trkpt>
      <trkpt lat="47.708893725648522" lon="12.248862851411104">
        <ele>1515.175048828125</ele>
        <time>2013-02-24T12:29:30Z</time>
      </trkpt>
      <trkpt lat="47.708931025117636" lon="12.248838460072875">
        <ele>1516.6171875</ele>
        <time>2013-02-24T12:29:39Z</time>
      </trkpt>
      <trkpt lat="47.708972850814462" lon="12.248810632154346">
        <ele>1519.0205078125</ele>
        <time>2013-02-24T12:29:48Z</time>
      </trkpt>
      <trkpt lat="47.709007719531655" lon="12.248827731236815">
        <ele>1520.46240234375</ele>
        <time>2013-02-24T12:29:57Z</time>
      </trkpt>
      <trkpt lat="47.709052562713623" lon="12.248885482549667">
        <ele>1522.385009765625</ele>
        <time>2013-02-24T12:30:07Z</time>
      </trkpt>
      <trkpt lat="47.70907586440444" lon="12.248883387073874">
        <ele>1522.385009765625</ele>
        <time>2013-02-24T12:30:14Z</time>
      </trkpt>
      <trkpt lat="47.709086677059531" lon="12.248873664066195">
        <ele>1523.826904296875</ele>
        <time>2013-02-24T12:30:21Z</time>
      </trkpt>
      <trkpt lat="47.709123305976391" lon="12.248845333233476">
        <ele>1524.788330078125</ele>
        <time>2013-02-24T12:30:29Z</time>
      </trkpt>
      <trkpt lat="47.709161527454853" lon="12.248789593577385">
        <ele>1526.7109375</ele>
        <time>2013-02-24T12:30:39Z</time>
      </trkpt>
      <trkpt lat="47.709217937663198" lon="12.248736955225468">
        <ele>1529.5947265625</ele>
        <time>2013-02-24T12:30:51Z</time>
      </trkpt>
      <trkpt lat="47.709278706461191" lon="12.248691776767373">
        <ele>1532.47900390625</ele>
        <time>2013-02-24T12:31:04Z</time>
      </trkpt>
      <trkpt lat="47.709360094740987" lon="12.248635953292251">
        <ele>1533.9208984375</ele>
        <time>2013-02-24T12:31:17Z</time>
      </trkpt>
      <trkpt lat="47.709382809698582" lon="12.248597564175725">
        <ele>1534.401611328125</ele>
        <time>2013-02-24T12:31:27Z</time>
      </trkpt>
      <trkpt lat="47.70938515663147" lon="12.248592535033822">
        <ele>1534.401611328125</ele>
        <time>2013-02-24T12:31:46Z</time>
      </trkpt>
      <trkpt lat="47.709449697285891" lon="12.248526737093925">
        <ele>1536.8046875</ele>
        <time>2013-02-24T12:31:58Z</time>
      </trkpt>
      <trkpt lat="47.709506778046489" lon="12.248499495908618">
        <ele>1537.76611328125</ele>
        <time>2013-02-24T12:32:10Z</time>
      </trkpt>
      <trkpt lat="47.709578862413764" lon="12.248468482866883">
        <ele>1541.130615234375</ele>
        <time>2013-02-24T12:32:25Z</time>
      </trkpt>
      <trkpt lat="47.709673829376698" lon="12.248371336609125">
        <ele>1543.05322265625</ele>
        <time>2013-02-24T12:32:42Z</time>
      </trkpt>
      <trkpt lat="47.709744907915592" lon="12.24828165024519">
        <ele>1545.45654296875</ele>
        <time>2013-02-24T12:32:57Z</time>
      </trkpt>
      <trkpt lat="47.709790756925941" lon="12.248237058520317">
        <ele>1544.975830078125</ele>
        <time>2013-02-24T12:33:08Z</time>
      </trkpt>
      <trkpt lat="47.709797127172351" lon="12.248215517029166">
        <ele>1546.41796875</ele>
        <time>2013-02-24T12:33:16Z</time>
      </trkpt>
      <trkpt lat="47.709816657006741" lon="12.248165309429169">
        <ele>1547.379150390625</ele>
        <time>2013-02-24T12:33:24Z</time>
      </trkpt>
      <trkpt lat="47.70983275026083" lon="12.248128429055214">
        <ele>1547.379150390625</ele>
        <time>2013-02-24T12:33:33Z</time>
      </trkpt>
      <trkpt lat="47.709859907627106" lon="12.247994486242533">
        <ele>1548.8212890625</ele>
        <time>2013-02-24T12:33:44Z</time>
      </trkpt>
      <trkpt lat="47.709890669211745" lon="12.247857945039868">
        <ele>1550.263427734375</ele>
        <time>2013-02-24T12:33:57Z</time>
      </trkpt>
      <trkpt lat="47.709920760244131" lon="12.247776472941041">
        <ele>1552.66650390625</ele>
        <time>2013-02-24T12:34:08Z</time>
      </trkpt>
      <trkpt lat="47.709965854883194" lon="12.247671028599143">
        <ele>1555.06982421875</ele>
        <time>2013-02-24T12:34:21Z</time>
      </trkpt>
      <trkpt lat="47.710009776055813" lon="12.247583018615842">
        <ele>1556.992431640625</ele>
        <time>2013-02-24T12:34:34Z</time>
      </trkpt>
      <trkpt lat="47.710038861259818" lon="12.247527027502656">
        <ele>1557.953857421875</ele>
        <time>2013-02-24T12:34:42Z</time>
      </trkpt>
      <trkpt lat="47.710066437721252" lon="12.247488470748067">
        <ele>1559.395751953125</ele>
        <time>2013-02-24T12:34:51Z</time>
      </trkpt>
      <trkpt lat="47.710095020011067" lon="12.247448991984129">
        <ele>1561.318359375</ele>
        <time>2013-02-24T12:35:00Z</time>
      </trkpt>
      <trkpt lat="47.710098959505558" lon="12.247446393594146">
        <ele>1560.837646484375</ele>
        <time>2013-02-24T12:35:16Z</time>
      </trkpt>
      <trkpt lat="47.710100635886192" lon="12.24744513630867">
        <ele>1561.318359375</ele>
        <time>2013-02-24T12:35:27Z</time>
      </trkpt>
      <trkpt lat="47.71010784432292" lon="12.247504899278283">
        <ele>1562.279541015625</ele>
        <time>2013-02-24T12:35:35Z</time>
      </trkpt>
      <trkpt lat="47.710132822394371" lon="12.247658539563417">
        <ele>1564.202392578125</ele>
        <time>2013-02-24T12:35:50Z</time>
      </trkpt>
      <trkpt lat="47.710152771323919" lon="12.247685445472598">
        <ele>1564.68310546875</ele>
        <time>2013-02-24T12:36:00Z</time>
      </trkpt>
      <trkpt lat="47.710164170712233" lon="12.247682847082615">
        <ele>1565.64453125</ele>
        <time>2013-02-24T12:36:08Z</time>
      </trkpt>
      <trkpt lat="47.710162159055471" lon="12.247685361653566">
        <ele>1565.163818359375</ele>
        <time>2013-02-24T12:36:17Z</time>
      </trkpt>
      <trkpt lat="47.710173977538943" lon="12.247702209278941">
        <ele>1565.64453125</ele>
        <time>2013-02-24T12:36:27Z</time>
      </trkpt>
      <trkpt lat="47.710204655304551" lon="12.247828608378768">
        <ele>1568.5283203125</ele>
        <time>2013-02-24T12:36:43Z</time>
      </trkpt>
      <trkpt lat="47.710209349170327" lon="12.247821902856231">
        <ele>1568.5283203125</ele>
        <time>2013-02-24T12:36:51Z</time>
      </trkpt>
      <trkpt lat="47.710244972258806" lon="12.247788542881608">
        <ele>1569.48974609375</ele>
        <time>2013-02-24T12:37:01Z</time>
      </trkpt>
      <trkpt lat="47.710265088826418" lon="12.247756943106651">
        <ele>1570.931640625</ele>
        <time>2013-02-24T12:37:10Z</time>
      </trkpt>
      <trkpt lat="47.710289312526584" lon="12.247686618939042">
        <ele>1571.892822265625</ele>
        <time>2013-02-24T12:37:18Z</time>
      </trkpt>
      <trkpt lat="47.71029937081039" lon="12.247618641704321">
        <ele>1573.3349609375</ele>
        <time>2013-02-24T12:37:26Z</time>
      </trkpt>
      <trkpt lat="47.710313787683845" lon="12.247601542621851">
        <ele>1574.296142578125</ele>
        <time>2013-02-24T12:37:34Z</time>
      </trkpt>
      <trkpt lat="47.710346728563309" lon="12.247562147676945">
        <ele>1576.21875</ele>
        <time>2013-02-24T12:37:45Z</time>
      </trkpt>
      <trkpt lat="47.710360893979669" lon="12.247505988925695">
        <ele>1576.699462890625</ele>
        <time>2013-02-24T12:37:53Z</time>
      </trkpt>
      <trkpt lat="47.710378328338265" lon="12.247398532927036">
        <ele>1578.141357421875</ele>
        <time>2013-02-24T12:38:04Z</time>
      </trkpt>
      <trkpt lat="47.710417052730918" lon="12.247331561520696">
        <ele>1579.583251953125</ele>
        <time>2013-02-24T12:38:15Z</time>
      </trkpt>
      <trkpt lat="47.710441779345274" lon="12.247273894026875">
        <ele>1582.467529296875</ele>
        <time>2013-02-24T12:38:24Z</time>
      </trkpt>
      <trkpt lat="47.710473630577326" lon="12.247182279825211">
        <ele>1584.870849609375</ele>
        <time>2013-02-24T12:38:38Z</time>
      </trkpt>
      <trkpt lat="47.710498608648777" lon="12.247114973142743">
        <ele>1586.312744140625</ele>
        <time>2013-02-24T12:38:49Z</time>
      </trkpt>
      <trkpt lat="47.710506655275822" lon="12.247098963707685">
        <ele>1587.27392578125</ele>
        <time>2013-02-24T12:38:54Z</time>
      </trkpt>
      <trkpt lat="47.710539596155286" lon="12.247038781642914">
        <ele>1589.196533203125</ele>
        <time>2013-02-24T12:39:04Z</time>
      </trkpt>
      <trkpt lat="47.71059256978333" lon="12.246949011459947">
        <ele>1591.599853515625</ele>
        <time>2013-02-24T12:39:16Z</time>
      </trkpt>
      <trkpt lat="47.71064436994493" lon="12.246869131922722">
        <ele>1593.041748046875</ele>
        <time>2013-02-24T12:39:28Z</time>
      </trkpt>
      <trkpt lat="47.710675885900855" lon="12.246818421408534">
        <ele>1594.483642578125</ele>
        <time>2013-02-24T12:39:40Z</time>
      </trkpt>
      <trkpt lat="47.710698014125228" lon="12.246790258213878">
        <ele>1594.483642578125</ele>
        <time>2013-02-24T12:39:53Z</time>
      </trkpt>
      <trkpt lat="47.71069323644042" lon="12.246799059212208">
        <ele>1594.483642578125</ele>
        <time>2013-02-24T12:40:01Z</time>
      </trkpt>
      <trkpt lat="47.710697008296847" lon="12.246847087517381">
        <ele>1595.92578125</ele>
        <time>2013-02-24T12:40:09Z</time>
      </trkpt>
      <trkpt lat="47.710705893114209" lon="12.246909197419882">
        <ele>1597.367919921875</ele>
        <time>2013-02-24T12:40:19Z</time>
      </trkpt>
      <trkpt lat="47.710731457918882" lon="12.246942473575473">
        <ele>1599.29052734375</ele>
        <time>2013-02-24T12:40:30Z</time>
      </trkpt>
      <trkpt lat="47.710764147341251" lon="12.246907269582152">
        <ele>1600.732421875</ele>
        <time>2013-02-24T12:40:37Z</time>
      </trkpt>
      <trkpt lat="47.710811421275139" lon="12.246856056153774">
        <ele>1602.17431640625</ele>
        <time>2013-02-24T12:40:47Z</time>
      </trkpt>
      <trkpt lat="47.710843272507191" lon="12.246798053383827">
        <ele>1603.1357421875</ele>
        <time>2013-02-24T12:40:55Z</time>
      </trkpt>
      <trkpt lat="47.710865903645754" lon="12.246751952916384">
        <ele>1604.09716796875</ele>
        <time>2013-02-24T12:41:03Z</time>
      </trkpt>
      <trkpt lat="47.710895072668791" lon="12.246717754751444">
        <ele>1605.058349609375</ele>
        <time>2013-02-24T12:41:11Z</time>
      </trkpt>
      <trkpt lat="47.710927426815033" lon="12.246675677597523">
        <ele>1606.98095703125</ele>
        <time>2013-02-24T12:41:19Z</time>
      </trkpt>
      <trkpt lat="47.710933713242412" lon="12.246704008430243">
        <ele>1607.461669921875</ele>
        <time>2013-02-24T12:41:25Z</time>
      </trkpt>
      <trkpt lat="47.710936311632395" lon="12.24678011611104">
        <ele>1609.38427734375</ele>
        <time>2013-02-24T12:41:35Z</time>
      </trkpt>
      <trkpt lat="47.710947375744581" lon="12.246872149407864">
        <ele>1609.86474609375</ele>
        <time>2013-02-24T12:41:50Z</time>
      </trkpt>
      <trkpt lat="47.710947878658772" lon="12.246875083073974">
        <ele>1609.86474609375</ele>
        <time>2013-02-24T12:42:06Z</time>
      </trkpt>
      <trkpt lat="47.710954248905182" lon="12.246878687292337">
        <ele>1610.345458984375</ele>
        <time>2013-02-24T12:42:17Z</time>
      </trkpt>
      <trkpt lat="47.710963133722544" lon="12.246886398643255">
        <ele>1610.345458984375</ele>
        <time>2013-02-24T12:42:31Z</time>
      </trkpt>
      <trkpt lat="47.710959697142243" lon="12.246872317045927">
        <ele>1609.86474609375</ele>
        <time>2013-02-24T12:42:40Z</time>
      </trkpt>
      <trkpt lat="47.710962044075131" lon="12.246879525482655">
        <ele>1610.826171875</ele>
        <time>2013-02-24T12:42:47Z</time>
      </trkpt>
      <trkpt lat="47.710963301360607" lon="12.246880866587162">
        <ele>1609.86474609375</ele>
        <time>2013-02-24T12:43:03Z</time>
      </trkpt>
      <trkpt lat="47.710975455120206" lon="12.24687784910202">
        <ele>1608.903564453125</ele>
        <time>2013-02-24T12:43:16Z</time>
      </trkpt>
      <trkpt lat="47.710977550595999" lon="12.246880866587162">
        <ele>1610.826171875</ele>
        <time>2013-02-24T12:46:51Z</time>
      </trkpt>
      <trkpt lat="47.710976963862777" lon="12.24688078276813">
        <ele>1607.9423828125</ele>
        <time>2013-02-24T12:49:31Z</time>
      </trkpt>
      <trkpt lat="47.710974365472794" lon="12.246879274025559">
        <ele>1603.616455078125</ele>
        <time>2013-02-24T12:54:17Z</time>
      </trkpt>
      <trkpt lat="47.710969839245081" lon="12.246880447492003">
        <ele>1600.251953125</ele>
        <time>2013-02-24T13:00:33Z</time>
      </trkpt>
      <trkpt lat="47.710955338552594" lon="12.246863935142756">
        <ele>1600.251953125</ele>
        <time>2013-02-24T13:16:36Z</time>
      </trkpt>
      <trkpt lat="47.710953997448087" lon="12.246861839666963">
        <ele>1600.251953125</ele>
        <time>2013-02-24T13:17:09Z</time>
      </trkpt>
      <trkpt lat="47.710954081267118" lon="12.246875502169132">
        <ele>1599.771240234375</ele>
        <time>2013-02-24T13:17:31Z</time>
      </trkpt>
      <trkpt lat="47.710960116237402" lon="12.246852032840252">
        <ele>1598.809814453125</ele>
        <time>2013-02-24T13:17:48Z</time>
      </trkpt>
      <trkpt lat="47.71095366217196" lon="12.246802998706698">
        <ele>1597.8486328125</ele>
        <time>2013-02-24T13:18:06Z</time>
      </trkpt>
      <trkpt lat="47.710959278047085" lon="12.246761675924063">
        <ele>1596.88720703125</ele>
        <time>2013-02-24T13:18:16Z</time>
      </trkpt>
      <trkpt lat="47.710959780961275" lon="12.246680036187172">
        <ele>1596.40673828125</ele>
        <time>2013-02-24T13:18:25Z</time>
      </trkpt>
      <trkpt lat="47.710963804274797" lon="12.24668481387198">
        <ele>1595.92578125</ele>
        <time>2013-02-24T13:18:34Z</time>
      </trkpt>
      <trkpt lat="47.710966318845749" lon="12.24668531678617">
        <ele>1595.92578125</ele>
        <time>2013-02-24T13:18:55Z</time>
      </trkpt>
      <trkpt lat="47.710967995226383" lon="12.246675342321396">
        <ele>1596.40673828125</ele>
        <time>2013-02-24T13:21:52Z</time>
      </trkpt>
      <trkpt lat="47.710964558646083" lon="12.246673163026571">
        <ele>1596.88720703125</ele>
        <time>2013-02-24T13:24:29Z</time>
      </trkpt>
      <trkpt lat="47.710882751271129" lon="12.24654701538384">
        <ele>1593.041748046875</ele>
        <time>2013-02-24T13:24:35Z</time>
      </trkpt>
      <trkpt lat="47.710846038535237" lon="12.246528072282672">
        <ele>1587.754638671875</ele>
        <time>2013-02-24T13:24:36Z</time>
      </trkpt>
      <trkpt lat="47.710810834541917" lon="12.246501920744777">
        <ele>1588.2353515625</ele>
        <time>2013-02-24T13:24:37Z</time>
      </trkpt>
      <trkpt lat="47.710756184533238" lon="12.246421035379171">
        <ele>1583.909423828125</ele>
        <time>2013-02-24T13:24:39Z</time>
      </trkpt>
      <trkpt lat="47.71073330193758" lon="12.24633252248168">
        <ele>1582.947998046875</ele>
        <time>2013-02-24T13:24:41Z</time>
      </trkpt>
      <trkpt lat="47.710749562829733" lon="12.246306538581848">
        <ele>1582.467529296875</ele>
        <time>2013-02-24T13:24:48Z</time>
      </trkpt>
      <trkpt lat="47.710724249482155" lon="12.246290277689695">
        <ele>1578.6220703125</ele>
        <time>2013-02-24T13:24:51Z</time>
      </trkpt>
      <trkpt lat="47.71066389977932" lon="12.246209057047963">
        <ele>1575.25732421875</ele>
        <time>2013-02-24T13:24:54Z</time>
      </trkpt>
      <trkpt lat="47.710642525926232" lon="12.246196568012238">
        <ele>1574.77685546875</ele>
        <time>2013-02-24T13:24:55Z</time>
      </trkpt>
      <trkpt lat="47.710601957514882" lon="12.246199166402221">
        <ele>1573.8154296875</ele>
        <time>2013-02-24T13:24:57Z</time>
      </trkpt>
      <trkpt lat="47.710550911724567" lon="12.246268568560481">
        <ele>1570.450927734375</ele>
        <time>2013-02-24T13:25:01Z</time>
      </trkpt>
      <trkpt lat="47.710516965016723" lon="12.246359931305051">
        <ele>1569.97021484375</ele>
        <time>2013-02-24T13:25:05Z</time>
      </trkpt>
      <trkpt lat="47.710518557578325" lon="12.246330343186855">
        <ele>1569.97021484375</ele>
        <time>2013-02-24T13:25:15Z</time>
      </trkpt>
      <trkpt lat="47.71051486954093" lon="12.246341910213232">
        <ele>1569.48974609375</ele>
        <time>2013-02-24T13:25:40Z</time>
      </trkpt>
      <trkpt lat="47.710510091856122" lon="12.246367055922747">
        <ele>1569.009033203125</ele>
        <time>2013-02-24T13:25:53Z</time>
      </trkpt>
      <trkpt lat="47.710505817085505" lon="12.246374767273664">
        <ele>1569.009033203125</ele>
        <time>2013-02-24T13:26:12Z</time>
      </trkpt>
      <trkpt lat="47.710464242845774" lon="12.246354483067989">
        <ele>1565.163818359375</ele>
        <time>2013-02-24T13:26:16Z</time>
      </trkpt>
      <trkpt lat="47.710452005267143" lon="12.246173517778516">
        <ele>1562.279541015625</ele>
        <time>2013-02-24T13:26:20Z</time>
      </trkpt>
      <trkpt lat="47.710440354421735" lon="12.246088106185198">
        <ele>1558.9150390625</ele>
        <time>2013-02-24T13:26:22Z</time>
      </trkpt>
      <trkpt lat="47.710435995832086" lon="12.246043933555484">
        <ele>1558.434326171875</ele>
        <time>2013-02-24T13:26:23Z</time>
      </trkpt>
      <trkpt lat="47.710413197055459" lon="12.245987690985203">
        <ele>1556.031005859375</ele>
        <time>2013-02-24T13:26:26Z</time>
      </trkpt>
      <trkpt lat="47.710404479876161" lon="12.245989115908742">
        <ele>1555.06982421875</ele>
        <time>2013-02-24T13:26:27Z</time>
      </trkpt>
      <trkpt lat="47.710362067446113" lon="12.24597386084497">
        <ele>1551.224609375</ele>
        <time>2013-02-24T13:26:31Z</time>
      </trkpt>
      <trkpt lat="47.710346225649118" lon="12.245974782854319">
        <ele>1549.78271484375</ele>
        <time>2013-02-24T13:26:32Z</time>
      </trkpt>
      <trkpt lat="47.710302555933595" lon="12.246015015989542">
        <ele>1548.340576171875</ele>
        <time>2013-02-24T13:26:35Z</time>
      </trkpt>
      <trkpt lat="47.710280427709222" lon="12.246030606329441">
        <ele>1547.85986328125</ele>
        <time>2013-02-24T13:26:37Z</time>
      </trkpt>
      <trkpt lat="47.710266849026084" lon="12.246016440913081">
        <ele>1546.8984375</ele>
        <time>2013-02-24T13:26:46Z</time>
      </trkpt>
      <trkpt lat="47.710220161825418" lon="12.246068324893713">
        <ele>1543.05322265625</ele>
        <time>2013-02-24T13:26:50Z</time>
      </trkpt>
      <trkpt lat="47.71020264364779" lon="12.246102690696716">
        <ele>1541.611328125</ele>
        <time>2013-02-24T13:26:51Z</time>
      </trkpt>
      <trkpt lat="47.710112622007728" lon="12.246237639337778">
        <ele>1537.285400390625</ele>
        <time>2013-02-24T13:26:55Z</time>
      </trkpt>
      <trkpt lat="47.710058307275176" lon="12.246290780603886">
        <ele>1533.9208984375</ele>
        <time>2013-02-24T13:26:57Z</time>
      </trkpt>
      <trkpt lat="47.710029222071171" lon="12.246334869414568">
        <ele>1531.036865234375</ele>
        <time>2013-02-24T13:26:58Z</time>
      </trkpt>
      <trkpt lat="47.710006423294544" lon="12.246377114206553">
        <ele>1531.517333984375</ele>
        <time>2013-02-24T13:26:59Z</time>
      </trkpt>
      <trkpt lat="47.709978427737951" lon="12.246425896883011">
        <ele>1530.075439453125</ele>
        <time>2013-02-24T13:27:03Z</time>
      </trkpt>
      <trkpt lat="47.709952527657151" lon="12.246503345668316">
        <ele>1528.633544921875</ele>
        <time>2013-02-24T13:27:09Z</time>
      </trkpt>
      <trkpt lat="47.709940792992711" lon="12.246557828038931">
        <ele>1528.15283203125</ele>
        <time>2013-02-24T13:27:23Z</time>
      </trkpt>
      <trkpt lat="47.709931656718254" lon="12.246553720906377">
        <ele>1528.15283203125</ele>
        <time>2013-02-24T13:27:42Z</time>
      </trkpt>
      <trkpt lat="47.70993241108954" lon="12.246554810553789">
        <ele>1528.15283203125</ele>
        <time>2013-02-24T13:27:44Z</time>
      </trkpt>
      <trkpt lat="47.709901481866837" lon="12.246595127508044">
        <ele>1525.268798828125</ele>
        <time>2013-02-24T13:27:48Z</time>
      </trkpt>
      <trkpt lat="47.709885807707906" lon="12.246595714241266">
        <ele>1521.904296875</ele>
        <time>2013-02-24T13:27:49Z</time>
      </trkpt>
      <trkpt lat="47.709869965910912" lon="12.246593786403537">
        <ele>1522.385009765625</ele>
        <time>2013-02-24T13:27:50Z</time>
      </trkpt>
      <trkpt lat="47.709843898192048" lon="12.246589092537761">
        <ele>1521.423583984375</ele>
        <time>2013-02-24T13:27:56Z</time>
      </trkpt>
      <trkpt lat="47.709853705018759" lon="12.246580207720399">
        <ele>1521.904296875</ele>
        <time>2013-02-24T13:27:59Z</time>
      </trkpt>
      <trkpt lat="47.709836270660162" lon="12.246550368145108">
        <ele>1518.539794921875</ele>
        <time>2013-02-24T13:28:02Z</time>
      </trkpt>
      <trkpt lat="47.709779106080532" lon="12.246523965150118">
        <ele>1513.73291015625</ele>
        <time>2013-02-24T13:28:05Z</time>
      </trkpt>
      <trkpt lat="47.709730658680201" lon="12.246523629873991">
        <ele>1511.329833984375</ele>
        <time>2013-02-24T13:28:07Z</time>
      </trkpt>
      <trkpt lat="47.709694867953658" lon="12.246490437537432">
        <ele>1510.368408203125</ele>
        <time>2013-02-24T13:28:10Z</time>
      </trkpt>
      <trkpt lat="47.709706267341971" lon="12.246503178030252">
        <ele>1509.8876953125</ele>
        <time>2013-02-24T13:28:17Z</time>
      </trkpt>
      <trkpt lat="47.709689503535628" lon="12.246478535234928">
        <ele>1506.523193359375</ele>
        <time>2013-02-24T13:28:20Z</time>
      </trkpt>
      <trkpt lat="47.709670979529619" lon="12.246430506929755">
        <ele>1505.56201171875</ele>
        <time>2013-02-24T13:28:26Z</time>
      </trkpt>
      <trkpt lat="47.70966075360775" lon="12.246454982087016">
        <ele>1505.56201171875</ele>
        <time>2013-02-24T13:28:36Z</time>
      </trkpt>
      <trkpt lat="47.709658909589052" lon="12.246470237150788">
        <ele>1506.04248046875</ele>
        <time>2013-02-24T13:28:52Z</time>
      </trkpt>
      <trkpt lat="47.709659161046147" lon="12.246470404788852">
        <ele>1506.04248046875</ele>
        <time>2013-02-24T13:29:05Z</time>
      </trkpt>
      <trkpt lat="47.709632255136967" lon="12.24648155272007">
        <ele>1502.197265625</ele>
        <time>2013-02-24T13:29:08Z</time>
      </trkpt>
      <trkpt lat="47.709615910425782" lon="12.246467638760805">
        <ele>1502.197265625</ele>
        <time>2013-02-24T13:29:09Z</time>
      </trkpt>
      <trkpt lat="47.709597973152995" lon="12.246448528021574">
        <ele>1498.83251953125</ele>
        <time>2013-02-24T13:29:10Z</time>
      </trkpt>
      <trkpt lat="47.709578946232796" lon="12.246433356776834">
        <ele>1499.313232421875</ele>
        <time>2013-02-24T13:29:11Z</time>
      </trkpt>
      <trkpt lat="47.709510885179043" lon="12.246398236602545">
        <ele>1493.064697265625</ele>
        <time>2013-02-24T13:29:14Z</time>
      </trkpt>
      <trkpt lat="47.70946386270225" lon="12.246377868577838">
        <ele>1491.14208984375</ele>
        <time>2013-02-24T13:29:17Z</time>
      </trkpt>
      <trkpt lat="47.709467299282551" lon="12.246382646262646">
        <ele>1490.661376953125</ele>
        <time>2013-02-24T13:29:30Z</time>
      </trkpt>
      <trkpt lat="47.709463611245155" lon="12.246384406462312">
        <ele>1491.14208984375</ele>
        <time>2013-02-24T13:29:31Z</time>
      </trkpt>
      <trkpt lat="47.709439806640148" lon="12.246379125863314">
        <ele>1488.25830078125</ele>
        <time>2013-02-24T13:29:33Z</time>
      </trkpt>
      <trkpt lat="47.709402171894908" lon="12.246360182762146">
        <ele>1482.970703125</ele>
        <time>2013-02-24T13:29:35Z</time>
      </trkpt>
      <trkpt lat="47.70938616245985" lon="12.246351046487689">
        <ele>1483.451416015625</ele>
        <time>2013-02-24T13:29:36Z</time>
      </trkpt>
      <trkpt lat="47.709343833848834" lon="12.246330929920077">
        <ele>1481.04833984375</ele>
        <time>2013-02-24T13:29:41Z</time>
      </trkpt>
      <trkpt lat="47.709311144426465" lon="12.246331181377172">
        <ele>1476.722412109375</ele>
        <time>2013-02-24T13:29:46Z</time>
      </trkpt>
      <trkpt lat="47.709258673712611" lon="12.246301509439945">
        <ele>1474.319091796875</ele>
        <time>2013-02-24T13:29:50Z</time>
      </trkpt>
      <trkpt lat="47.709239646792412" lon="12.24626462906599">
        <ele>1473.35791015625</ele>
        <time>2013-02-24T13:29:54Z</time>
      </trkpt>
      <trkpt lat="47.709224643185735" lon="12.246179888024926">
        <ele>1471.43505859375</ele>
        <time>2013-02-24T13:29:56Z</time>
      </trkpt>
      <trkpt lat="47.709218692034483" lon="12.246067654341459">
        <ele>1469.9931640625</ele>
        <time>2013-02-24T13:29:58Z</time>
      </trkpt>
      <trkpt lat="47.709226319566369" lon="12.24598903208971">
        <ele>1469.9931640625</ele>
        <time>2013-02-24T13:30:03Z</time>
      </trkpt>
      <trkpt lat="47.709228163585067" lon="12.246020380407572">
        <ele>1469.9931640625</ele>
        <time>2013-02-24T13:30:13Z</time>
      </trkpt>
      <trkpt lat="47.709203017875552" lon="12.24601442925632">
        <ele>1468.070556640625</ele>
        <time>2013-02-24T13:30:16Z</time>
      </trkpt>
      <trkpt lat="47.709147110581398" lon="12.246027588844299">
        <ele>1463.263916015625</ele>
        <time>2013-02-24T13:30:18Z</time>
      </trkpt>
      <trkpt lat="47.70900403149426" lon="12.246054327115417">
        <ele>1458.93798828125</ele>
        <time>2013-02-24T13:30:21Z</time>
      </trkpt>
      <trkpt lat="47.708899425342679" lon="12.246049046516418">
        <ele>1454.612060546875</ele>
        <time>2013-02-24T13:30:23Z</time>
      </trkpt>
      <trkpt lat="47.708847625181079" lon="12.246039155870676">
        <ele>1451.247314453125</ele>
        <time>2013-02-24T13:30:24Z</time>
      </trkpt>
      <trkpt lat="47.708747964352369" lon="12.246019039303064">
        <ele>1445.960205078125</ele>
        <time>2013-02-24T13:30:26Z</time>
      </trkpt>
      <trkpt lat="47.708650063723326" lon="12.246081400662661">
        <ele>1444.51806640625</ele>
        <time>2013-02-24T13:30:29Z</time>
      </trkpt>
      <trkpt lat="47.708645537495613" lon="12.246165722608566">
        <ele>1443.556884765625</ele>
        <time>2013-02-24T13:30:36Z</time>
      </trkpt>
      <trkpt lat="47.708647716790438" lon="12.246149461716413">
        <ele>1443.076171875</ele>
        <time>2013-02-24T13:30:59Z</time>
      </trkpt>
      <trkpt lat="47.708648554980755" lon="12.246149964630604">
        <ele>1442.595703125</ele>
        <time>2013-02-24T13:31:33Z</time>
      </trkpt>
      <trkpt lat="47.708647716790438" lon="12.246150886639953">
        <ele>1441.153564453125</ele>
        <time>2013-02-24T13:32:51Z</time>
      </trkpt>
      <trkpt lat="47.708617374300957" lon="12.246146528050303">
        <ele>1439.23095703125</ele>
        <time>2013-02-24T13:32:54Z</time>
      </trkpt>
      <trkpt lat="47.708590971305966" lon="12.24612825550139">
        <ele>1438.75048828125</ele>
        <time>2013-02-24T13:32:55Z</time>
      </trkpt>
      <trkpt lat="47.708440683782101" lon="12.246011244133115">
        <ele>1430.5791015625</ele>
        <time>2013-02-24T13:32:59Z</time>
      </trkpt>
      <trkpt lat="47.708406317979097" lon="12.245979057624936">
        <ele>1427.214599609375</ele>
        <time>2013-02-24T13:33:00Z</time>
      </trkpt>
      <trkpt lat="47.708343202248216" lon="12.245901860296726">
        <ele>1422.407958984375</ele>
        <time>2013-02-24T13:33:02Z</time>
      </trkpt>
      <trkpt lat="47.708277571946383" lon="12.245827512815595">
        <ele>1419.043212890625</ele>
        <time>2013-02-24T13:33:04Z</time>
      </trkpt>
      <trkpt lat="47.708243122324347" lon="12.245792644098401">
        <ele>1415.6787109375</ele>
        <time>2013-02-24T13:33:05Z</time>
      </trkpt>
      <trkpt lat="47.708169529214501" lon="12.245737072080374">
        <ele>1411.352783203125</ele>
        <time>2013-02-24T13:33:07Z</time>
      </trkpt>
      <trkpt lat="47.708091158419847" lon="12.245692731812596">
        <ele>1406.0654296875</ele>
        <time>2013-02-24T13:33:09Z</time>
      </trkpt>
      <trkpt lat="47.708033490926027" lon="12.245630957186222">
        <ele>1402.70068359375</ele>
        <time>2013-02-24T13:33:11Z</time>
      </trkpt>
      <trkpt lat="47.707972219213843" lon="12.245559459552169">
        <ele>1398.374755859375</ele>
        <time>2013-02-24T13:33:13Z</time>
      </trkpt>
      <trkpt lat="47.70791731774807" lon="12.245466001331806">
        <ele>1392.607177734375</ele>
        <time>2013-02-24T13:33:15Z</time>
      </trkpt>
      <trkpt lat="47.707859482616186" lon="12.245399029925466">
        <ele>1388.761962890625</ele>
        <time>2013-02-24T13:33:17Z</time>
      </trkpt>
      <trkpt lat="47.7078225184232" lon="12.245340691879392">
        <ele>1386.3583984375</ele>
        <time>2013-02-24T13:33:19Z</time>
      </trkpt>
      <trkpt lat="47.70781958475709" lon="12.245286544784904">
        <ele>1384.91650390625</ele>
        <time>2013-02-24T13:33:21Z</time>
      </trkpt>
      <trkpt lat="47.707844981923699" lon="12.245281767100096">
        <ele>1384.435791015625</ele>
        <time>2013-02-24T13:33:37Z</time>
      </trkpt>
      <trkpt lat="47.707844898104668" lon="12.245282353833318">
        <ele>1384.435791015625</ele>
        <time>2013-02-24T13:34:13Z</time>
      </trkpt>
      <trkpt lat="47.707849675789475" lon="12.245268356055021">
        <ele>1383.474365234375</ele>
        <time>2013-02-24T13:35:19Z</time>
      </trkpt>
      <trkpt lat="47.70784942433238" lon="12.245219741016626">
        <ele>1381.0712890625</ele>
        <time>2013-02-24T13:35:21Z</time>
      </trkpt>
      <trkpt lat="47.707824362441897" lon="12.245133742690086">
        <ele>1376.745361328125</ele>
        <time>2013-02-24T13:35:23Z</time>
      </trkpt>
      <trkpt lat="47.707801982760429" lon="12.245081439614296">
        <ele>1373.380859375</ele>
        <time>2013-02-24T13:35:24Z</time>
      </trkpt>
      <trkpt lat="47.707734508439898" lon="12.245020503178239">
        <ele>1369.0546875</ele>
        <time>2013-02-24T13:35:26Z</time>
      </trkpt>
      <trkpt lat="47.707667788490653" lon="12.244976414367557">
        <ele>1365.690185546875</ele>
        <time>2013-02-24T13:35:28Z</time>
      </trkpt>
      <trkpt lat="47.707639625295997" lon="12.244891673326492">
        <ele>1363.767333984375</ele>
        <time>2013-02-24T13:35:30Z</time>
      </trkpt>
      <trkpt lat="47.707618251442909" lon="12.244770219549537">
        <ele>1357.999755859375</ele>
        <time>2013-02-24T13:35:33Z</time>
      </trkpt>
      <trkpt lat="47.707599140703678" lon="12.244764687493443">
        <ele>1358.480224609375</ele>
        <time>2013-02-24T13:35:34Z</time>
      </trkpt>
      <trkpt lat="47.707573072984815" lon="12.244764603674412">
        <ele>1354.634765625</ele>
        <time>2013-02-24T13:35:35Z</time>
      </trkpt>
      <trkpt lat="47.707505095750093" lon="12.244749767705798">
        <ele>1351.270263671875</ele>
        <time>2013-02-24T13:35:37Z</time>
      </trkpt>
      <trkpt lat="47.707466706633568" lon="12.244728729128838">
        <ele>1347.90576171875</ele>
        <time>2013-02-24T13:35:38Z</time>
      </trkpt>
      <trkpt lat="47.707388503476977" lon="12.244665864855051">
        <ele>1343.09912109375</ele>
        <time>2013-02-24T13:35:40Z</time>
      </trkpt>
      <trkpt lat="47.707293285056949" lon="12.244625380262733">
        <ele>1341.176513671875</ele>
        <time>2013-02-24T13:35:42Z</time>
      </trkpt>
      <trkpt lat="47.707145847380161" lon="12.244636612012982">
        <ele>1337.811767578125</ele>
        <time>2013-02-24T13:35:44Z</time>
      </trkpt>
      <trkpt lat="47.707040822133422" lon="12.244648933410645">
        <ele>1333.48583984375</ele>
        <time>2013-02-24T13:35:47Z</time>
      </trkpt>
      <trkpt lat="47.706990279257298" lon="12.244558073580265">
        <ele>1329.640625</ele>
        <time>2013-02-24T13:35:49Z</time>
      </trkpt>
      <trkpt lat="47.706909226253629" lon="12.244441313669086">
        <ele>1324.834228515625</ele>
        <time>2013-02-24T13:35:51Z</time>
      </trkpt>
      <trkpt lat="47.706681909039617" lon="12.244358416646719">
        <ele>1318.104736328125</ele>
        <time>2013-02-24T13:35:55Z</time>
      </trkpt>
      <trkpt lat="47.706587864086032" lon="12.244379706680775">
        <ele>1316.662841796875</ele>
        <time>2013-02-24T13:35:57Z</time>
      </trkpt>
      <trkpt lat="47.706453502178192" lon="12.244451707229018">
        <ele>1313.29833984375</ele>
        <time>2013-02-24T13:36:01Z</time>
      </trkpt>
      <trkpt lat="47.706414358690381" lon="12.244426645338535">
        <ele>1311.375732421875</ele>
        <time>2013-02-24T13:36:02Z</time>
      </trkpt>
      <trkpt lat="47.70619248971343" lon="12.244500992819667">
        <ele>1307.5302734375</ele>
        <time>2013-02-24T13:36:06Z</time>
      </trkpt>
      <trkpt lat="47.705920245498419" lon="12.244607862085104">
        <ele>1303.204345703125</ele>
        <time>2013-02-24T13:36:10Z</time>
      </trkpt>
      <trkpt lat="47.705836007371545" lon="12.2446184232831">
        <ele>1300.320556640625</ele>
        <time>2013-02-24T13:36:11Z</time>
      </trkpt>
      <trkpt lat="47.705659652128816" lon="12.244702158495784">
        <ele>1299.359130859375</ele>
        <time>2013-02-24T13:36:15Z</time>
      </trkpt>
      <trkpt lat="47.705564266070724" lon="12.244487665593624">
        <ele>1293.59130859375</ele>
        <time>2013-02-24T13:36:19Z</time>
      </trkpt>
      <trkpt lat="47.705501904711127" lon="12.244353052228689">
        <ele>1291.66845703125</ele>
        <time>2013-02-24T13:36:21Z</time>
      </trkpt>
      <trkpt lat="47.705434430390596" lon="12.244254983961582">
        <ele>1288.303955078125</ele>
        <time>2013-02-24T13:36:23Z</time>
      </trkpt>
      <trkpt lat="47.705412302166224" lon="12.244205446913838">
        <ele>1288.303955078125</ele>
        <time>2013-02-24T13:36:24Z</time>
      </trkpt>
      <trkpt lat="47.70535983145237" lon="12.244136044755578">
        <ele>1282.5361328125</ele>
        <time>2013-02-24T13:36:26Z</time>
      </trkpt>
      <trkpt lat="47.705308450385928" lon="12.244049124419689">
        <ele>1279.17138671875</ele>
        <time>2013-02-24T13:36:28Z</time>
      </trkpt>
      <trkpt lat="47.705235024914145" lon="12.243951559066772">
        <ele>1274.36474609375</ele>
        <time>2013-02-24T13:36:30Z</time>
      </trkpt>
      <trkpt lat="47.705169646069407" lon="12.243725080043077">
        <ele>1268.1162109375</ele>
        <time>2013-02-24T13:36:34Z</time>
      </trkpt>
      <trkpt lat="47.705165790393949" lon="12.243683757260442">
        <ele>1268.1162109375</ele>
        <time>2013-02-24T13:36:35Z</time>
      </trkpt>
      <trkpt lat="47.705158749595284" lon="12.243658695369959">
        <ele>1267.155029296875</ele>
        <time>2013-02-24T13:36:36Z</time>
      </trkpt>
      <trkpt lat="47.705116420984268" lon="12.243619551882148">
        <ele>1265.713134765625</ele>
        <time>2013-02-24T13:36:39Z</time>
      </trkpt>
      <trkpt lat="47.705112816765904" lon="12.24360253661871">
        <ele>1264.27099609375</ele>
        <time>2013-02-24T13:36:45Z</time>
      </trkpt>
      <trkpt lat="47.705131759867072" lon="12.243660958483815">
        <ele>1268.1162109375</ele>
        <time>2013-02-24T14:49:57Z</time>
      </trkpt>
      <trkpt lat="47.705101082101464" lon="12.243706388399005">
        <ele>1268.596923828125</ele>
        <time>2013-02-24T14:50:05Z</time>
      </trkpt>
      <trkpt lat="47.70506864413619" lon="12.243707058951259">
        <ele>1267.635498046875</ele>
        <time>2013-02-24T14:50:14Z</time>
      </trkpt>
      <trkpt lat="47.70506864413619" lon="12.243702616542578">
        <ele>1268.596923828125</ele>
        <time>2013-02-24T14:50:21Z</time>
      </trkpt>
      <trkpt lat="47.705071996897459" lon="12.243705298751593">
        <ele>1267.635498046875</ele>
        <time>2013-02-24T14:50:33Z</time>
      </trkpt>
      <trkpt lat="47.705073589459062" lon="12.243708819150925">
        <ele>1268.1162109375</ele>
        <time>2013-02-24T14:50:52Z</time>
      </trkpt>
      <trkpt lat="47.705065794289112" lon="12.243687361478806">
        <ele>1267.635498046875</ele>
        <time>2013-02-24T14:52:26Z</time>
      </trkpt>
      <trkpt lat="47.705061184242368" lon="12.243679398670793">
        <ele>1268.596923828125</ele>
        <time>2013-02-24T14:52:28Z</time>
      </trkpt>
      <trkpt lat="47.705025561153889" lon="12.243681158870459">
        <ele>1266.193603515625</ele>
        <time>2013-02-24T14:52:31Z</time>
      </trkpt>
      <trkpt lat="47.704953979700804" lon="12.24370420910418">
        <ele>1261.38720703125</ele>
        <time>2013-02-24T14:52:33Z</time>
      </trkpt>
      <trkpt lat="47.704866053536534" lon="12.2437325399369">
        <ele>1257.541748046875</ele>
        <time>2013-02-24T14:52:35Z</time>
      </trkpt>
      <trkpt lat="47.704779552295804" lon="12.243745783343911">
        <ele>1253.2158203125</ele>
        <time>2013-02-24T14:52:37Z</time>
      </trkpt>
      <trkpt lat="47.70467234775424" lon="12.24369783885777">
        <ele>1251.293212890625</ele>
        <time>2013-02-24T14:52:40Z</time>
      </trkpt>
      <trkpt lat="47.704648207873106" lon="12.24364846944809">
        <ele>1249.851318359375</ele>
        <time>2013-02-24T14:52:42Z</time>
      </trkpt>
      <trkpt lat="47.704667737707496" lon="12.243616702035069">
        <ele>1249.37060546875</ele>
        <time>2013-02-24T14:52:50Z</time>
      </trkpt>
      <trkpt lat="47.704658936709166" lon="12.243657354265451">
        <ele>1249.37060546875</ele>
        <time>2013-02-24T14:52:59Z</time>
      </trkpt>
      <trkpt lat="47.704658014699817" lon="12.243685517460108">
        <ele>1249.37060546875</ele>
        <time>2013-02-24T14:53:02Z</time>
      </trkpt>
      <trkpt lat="47.704633707180619" lon="12.243732288479805">
        <ele>1247.447998046875</ele>
        <time>2013-02-24T14:53:05Z</time>
      </trkpt>
      <trkpt lat="47.704566987231374" lon="12.243912499397993">
        <ele>1244.08349609375</ele>
        <time>2013-02-24T14:53:09Z</time>
      </trkpt>
      <trkpt lat="47.704553827643394" lon="12.243967484682798">
        <ele>1244.08349609375</ele>
        <time>2013-02-24T14:53:15Z</time>
      </trkpt>
      <trkpt lat="47.704559611156583" lon="12.24394753575325">
        <ele>1243.6025390625</ele>
        <time>2013-02-24T14:53:23Z</time>
      </trkpt>
      <trkpt lat="47.704480988904834" lon="12.243896070867777">
        <ele>1239.75732421875</ele>
        <time>2013-02-24T14:53:26Z</time>
      </trkpt>
      <trkpt lat="47.704472774639726" lon="12.243860447779298">
        <ele>1236.392822265625</ele>
        <time>2013-02-24T14:53:28Z</time>
      </trkpt>
      <trkpt lat="47.704409658908844" lon="12.243761289864779">
        <ele>1231.586181640625</ele>
        <time>2013-02-24T14:53:30Z</time>
      </trkpt>
      <trkpt lat="47.704369677230716" lon="12.243730612099171">
        <ele>1229.66357421875</ele>
        <time>2013-02-24T14:53:31Z</time>
      </trkpt>
      <trkpt lat="47.704234225675464" lon="12.243715273216367">
        <ele>1226.298828125</ele>
        <time>2013-02-24T14:53:33Z</time>
      </trkpt>
      <trkpt lat="47.704059965908527" lon="12.24371301010251">
        <ele>1222.45361328125</ele>
        <time>2013-02-24T14:53:35Z</time>
      </trkpt>
      <trkpt lat="47.703925855457783" lon="12.243716111406684">
        <ele>1219.089111328125</ele>
        <time>2013-02-24T14:53:37Z</time>
      </trkpt>
      <trkpt lat="47.703775065019727" lon="12.243743520230055">
        <ele>1214.282470703125</ele>
        <time>2013-02-24T14:53:40Z</time>
      </trkpt>
      <trkpt lat="47.703598458319902" lon="12.243797834962606">
        <ele>1209.475830078125</ele>
        <time>2013-02-24T14:53:43Z</time>
      </trkpt>
      <trkpt lat="47.703419337049127" lon="12.243746789172292">
        <ele>1203.227294921875</ele>
        <time>2013-02-24T14:53:46Z</time>
      </trkpt>
      <trkpt lat="47.70337357185781" lon="12.243688032031059">
        <ele>1202.265869140625</ele>
        <time>2013-02-24T14:53:47Z</time>
      </trkpt>
      <trkpt lat="47.703234180808067" lon="12.243562219664454">
        <ele>1195.53662109375</ele>
        <time>2013-02-24T14:53:50Z</time>
      </trkpt>
      <trkpt lat="47.703053802251816" lon="12.243495751172304">
        <ele>1191.210693359375</ele>
        <time>2013-02-24T14:53:53Z</time>
      </trkpt>
      <trkpt lat="47.702920362353325" lon="12.243441939353943">
        <ele>1187.84619140625</ele>
        <time>2013-02-24T14:53:55Z</time>
      </trkpt>
      <trkpt lat="47.702717604115605" lon="12.243411429226398">
        <ele>1184.0009765625</ele>
        <time>2013-02-24T14:53:58Z</time>
      </trkpt>
      <trkpt lat="47.702655829489231" lon="12.243396509438753">
        <ele>1181.1171875</ele>
        <time>2013-02-24T14:53:59Z</time>
      </trkpt>
      <trkpt lat="47.702644346281886" lon="12.243288801982999">
        <ele>1179.6748046875</ele>
        <time>2013-02-24T14:54:04Z</time>
      </trkpt>
      <trkpt lat="47.702650129795074" lon="12.24329081363976">
        <ele>1179.6748046875</ele>
        <time>2013-02-24T14:55:22Z</time>
      </trkpt>
      <trkpt lat="47.702638227492571" lon="12.24326541647315">
        <ele>1178.713623046875</ele>
        <time>2013-02-24T14:55:23Z</time>
      </trkpt>
      <trkpt lat="47.702489029616117" lon="12.243182519450784">
        <ele>1173.906982421875</ele>
        <time>2013-02-24T14:55:27Z</time>
      </trkpt>
      <trkpt lat="47.702443180605769" lon="12.243146812543273">
        <ele>1171.984375</ele>
        <time>2013-02-24T14:55:28Z</time>
      </trkpt>
      <trkpt lat="47.702357266098261" lon="12.243025023490191">
        <ele>1168.13916015625</ele>
        <time>2013-02-24T14:55:30Z</time>
      </trkpt>
      <trkpt lat="47.702182251960039" lon="12.242816565558314">
        <ele>1160.448486328125</ele>
        <time>2013-02-24T14:55:34Z</time>
      </trkpt>
      <trkpt lat="47.702020816504955" lon="12.242664098739624">
        <ele>1157.083984375</ele>
        <time>2013-02-24T14:55:37Z</time>
      </trkpt>
      <trkpt lat="47.701928783208132" lon="12.242534095421433">
        <ele>1152.27734375</ele>
        <time>2013-02-24T14:55:39Z</time>
      </trkpt>
      <trkpt lat="47.70182903856039" lon="12.242320021614432">
        <ele>1146.02880859375</ele>
        <time>2013-02-24T14:55:42Z</time>
      </trkpt>
      <trkpt lat="47.701785117387772" lon="12.242245506495237">
        <ele>1143.62548828125</ele>
        <time>2013-02-24T14:55:43Z</time>
      </trkpt>
      <trkpt lat="47.701500719413161" lon="12.242004526779056">
        <ele>1134.973876953125</ele>
        <time>2013-02-24T14:55:47Z</time>
      </trkpt>
      <trkpt lat="47.701343223452568" lon="12.241880223155022">
        <ele>1132.08984375</ele>
        <time>2013-02-24T14:55:49Z</time>
      </trkpt>
      <trkpt lat="47.701176758855581" lon="12.241723230108619">
        <ele>1127.763671875</ele>
        <time>2013-02-24T14:55:51Z</time>
      </trkpt>
      <trkpt lat="47.700995374470949" lon="12.241581240668893">
        <ele>1123.91845703125</ele>
        <time>2013-02-24T14:55:53Z</time>
      </trkpt>
      <trkpt lat="47.700767470523715" lon="12.241451824083924">
        <ele>1121.995849609375</ele>
        <time>2013-02-24T14:55:56Z</time>
      </trkpt>
      <trkpt lat="47.700669234618545" lon="12.241377728059888">
        <ele>1120.0732421875</ele>
        <time>2013-02-24T14:55:58Z</time>
      </trkpt>
      <trkpt lat="47.700582649558783" lon="12.241282174363732">
        <ele>1120.553955078125</ele>
        <time>2013-02-24T14:56:02Z</time>
      </trkpt>
      <trkpt lat="47.700525401160121" lon="12.241269685328007">
        <ele>1119.5927734375</ele>
        <time>2013-02-24T14:56:10Z</time>
      </trkpt>
      <trkpt lat="47.700476450845599" lon="12.241247054189444">
        <ele>1118.150634765625</ele>
        <time>2013-02-24T14:56:14Z</time>
      </trkpt>
      <trkpt lat="47.700489861890674" lon="12.241253256797791">
        <ele>1118.63134765625</ele>
        <time>2013-02-24T14:56:37Z</time>
      </trkpt>
      <trkpt lat="47.700491873547435" lon="12.24125174805522">
        <ele>1118.150634765625</ele>
        <time>2013-02-24T14:57:02Z</time>
      </trkpt>
      <trkpt lat="47.700494807213545" lon="12.241252083331347">
        <ele>1118.150634765625</ele>
        <time>2013-02-24T14:57:19Z</time>
      </trkpt>
      <trkpt lat="47.700489778071642" lon="12.24123565480113">
        <ele>1117.669921875</ele>
        <time>2013-02-24T14:57:39Z</time>
      </trkpt>
      <trkpt lat="47.700421214103699" lon="12.241168348118663">
        <ele>1117.189453125</ele>
        <time>2013-02-24T14:57:44Z</time>
      </trkpt>
      <trkpt lat="47.700328761711717" lon="12.241113195195794">
        <ele>1115.747314453125</ele>
        <time>2013-02-24T14:57:46Z</time>
      </trkpt>
      <trkpt lat="47.700141929090023" lon="12.240989143028855">
        <ele>1109.979248046875</ele>
        <time>2013-02-24T14:57:49Z</time>
      </trkpt>
      <trkpt lat="47.699957275763154" lon="12.240896942093968">
        <ele>1104.692138671875</ele>
        <time>2013-02-24T14:57:52Z</time>
      </trkpt>
      <trkpt lat="47.699821824207902" lon="12.240805327892303">
        <ele>1100.366455078125</ele>
        <time>2013-02-24T14:57:55Z</time>
      </trkpt>
      <trkpt lat="47.699780836701393" lon="12.240782948210835">
        <ele>1098.924072265625</ele>
        <time>2013-02-24T14:57:56Z</time>
      </trkpt>
      <trkpt lat="47.699650162830949" lon="12.240831395611167">
        <ele>1092.195068359375</ele>
        <time>2013-02-24T14:57:59Z</time>
      </trkpt>
      <trkpt lat="47.699566846713424" lon="12.240835586562753">
        <ele>1089.31103515625</ele>
        <time>2013-02-24T14:58:01Z</time>
      </trkpt>
      <trkpt lat="47.699480513110757" lon="12.240856541320682">
        <ele>1085.4658203125</ele>
        <time>2013-02-24T14:58:03Z</time>
      </trkpt>
      <trkpt lat="47.699427288025618" lon="12.2408711258322">
        <ele>1082.10107421875</ele>
        <time>2013-02-24T14:58:04Z</time>
      </trkpt>
      <trkpt lat="47.699367608875036" lon="12.240904904901981">
        <ele>1081.620361328125</ele>
        <time>2013-02-24T14:58:05Z</time>
      </trkpt>
      <trkpt lat="47.699232324957848" lon="12.241022754460573">
        <ele>1076.81396484375</ele>
        <time>2013-02-24T14:58:07Z</time>
      </trkpt>
      <trkpt lat="47.699163174256682" lon="12.241061814129353">
        <ele>1073.929931640625</ele>
        <time>2013-02-24T14:58:08Z</time>
      </trkpt>
      <trkpt lat="47.698942059651017" lon="12.241042032837868">
        <ele>1066.719970703125</ele>
        <time>2013-02-24T14:58:12Z</time>
      </trkpt>
      <trkpt lat="47.6988444942981" lon="12.241046307608485">
        <ele>1062.39404296875</ele>
        <time>2013-02-24T14:58:14Z</time>
      </trkpt>
      <trkpt lat="47.69872966222465" lon="12.241120655089617">
        <ele>1059.029541015625</ele>
        <time>2013-02-24T14:58:17Z</time>
      </trkpt>
      <trkpt lat="47.698707198724151" lon="12.241090396419168">
        <ele>1058.068359375</ele>
        <time>2013-02-24T14:58:19Z</time>
      </trkpt>
      <trkpt lat="47.698724465444684" lon="12.241035159677267">
        <ele>1057.10693359375</ele>
        <time>2013-02-24T14:58:25Z</time>
      </trkpt>
      <trkpt lat="47.698723459616303" lon="12.241037087514997">
        <ele>1057.587646484375</ele>
        <time>2013-02-24T14:58:53Z</time>
      </trkpt>
      <trkpt lat="47.698621787130833" lon="12.24091169424355">
        <ele>1055.184326171875</ele>
        <time>2013-02-24T14:58:57Z</time>
      </trkpt>
      <trkpt lat="47.698575938120484" lon="12.240622350946069">
        <ele>1052.30029296875</ele>
        <time>2013-02-24T14:59:00Z</time>
      </trkpt>
      <trkpt lat="47.698509050533175" lon="12.240559319034219">
        <ele>1050.377685546875</ele>
        <time>2013-02-24T14:59:02Z</time>
      </trkpt>
      <trkpt lat="47.698306292295456" lon="12.240525791421533">
        <ele>1049.416259765625</ele>
        <time>2013-02-24T14:59:09Z</time>
      </trkpt>
      <trkpt lat="47.69828793592751" lon="12.24050416611135">
        <ele>1048.935546875</ele>
        <time>2013-02-24T14:59:17Z</time>
      </trkpt>
      <trkpt lat="47.698205709457397" lon="12.240476170554757">
        <ele>1047.974365234375</ele>
        <time>2013-02-24T14:59:23Z</time>
      </trkpt>
      <trkpt lat="47.69821560010314" lon="12.24047482945025">
        <ele>1048.454833984375</ele>
        <time>2013-02-24T14:59:40Z</time>
      </trkpt>
      <trkpt lat="47.698216857388616" lon="12.240473991259933">
        <ele>1048.935546875</ele>
        <time>2013-02-24T15:00:58Z</time>
      </trkpt>
      <trkpt lat="47.698215348646045" lon="12.240476841107011">
        <ele>1049.89697265625</ele>
        <time>2013-02-24T15:01:35Z</time>
      </trkpt>
      <trkpt lat="47.698155166581273" lon="12.240470219403505">
        <ele>1048.935546875</ele>
        <time>2013-02-24T15:01:56Z</time>
      </trkpt>
      <trkpt lat="47.697925250977278" lon="12.240349017083645">
        <ele>1047.49365234375</ele>
        <time>2013-02-24T15:02:04Z</time>
      </trkpt>
      <trkpt lat="47.697744285687804" lon="12.240109210833907">
        <ele>1046.0517578125</ele>
        <time>2013-02-24T15:02:10Z</time>
      </trkpt>
      <trkpt lat="47.697694832459092" lon="12.239994211122394">
        <ele>1044.609619140625</ele>
        <time>2013-02-24T15:02:12Z</time>
      </trkpt>
      <trkpt lat="47.697523673996329" lon="12.239814167842269">
        <ele>1039.80322265625</ele>
        <time>2013-02-24T15:02:16Z</time>
      </trkpt>
      <trkpt lat="47.697318233549595" lon="12.239801175892353">
        <ele>1033.554443359375</ele>
        <time>2013-02-24T15:02:19Z</time>
      </trkpt>
      <trkpt lat="47.697154367342591" lon="12.239818191155791">
        <ele>1029.228515625</ele>
        <time>2013-02-24T15:02:21Z</time>
      </trkpt>
      <trkpt lat="47.696962002664804" lon="12.239800421521068">
        <ele>1025.38330078125</ele>
        <time>2013-02-24T15:02:23Z</time>
      </trkpt>
      <trkpt lat="47.696758825331926" lon="12.239751135930419">
        <ele>1021.0576171875</ele>
        <time>2013-02-24T15:02:25Z</time>
      </trkpt>
      <trkpt lat="47.69642623141408" lon="12.239835038781166">
        <ele>1015.770263671875</ele>
        <time>2013-02-24T15:02:29Z</time>
      </trkpt>
      <trkpt lat="47.696374179795384" lon="12.239891951903701">
        <ele>1015.770263671875</ele>
        <time>2013-02-24T15:02:30Z</time>
      </trkpt>
      <trkpt lat="47.696210397407413" lon="12.240034779533744">
        <ele>1012.88623046875</ele>
        <time>2013-02-24T15:02:33Z</time>
      </trkpt>
      <trkpt lat="47.696002358570695" lon="12.240212308242917">
        <ele>1009.521728515625</ele>
        <time>2013-02-24T15:02:36Z</time>
      </trkpt>
      <trkpt lat="47.695734305307269" lon="12.240538783371449">
        <ele>1003.753662109375</ele>
        <time>2013-02-24T15:02:40Z</time>
      </trkpt>
      <trkpt lat="47.695576557889581" lon="12.240738021209836">
        <ele>1001.350341796875</ele>
        <time>2013-02-24T15:02:43Z</time>
      </trkpt>
      <trkpt lat="47.695420319214463" lon="12.240958129987121">
        <ele>997.98583984375</ele>
        <time>2013-02-24T15:02:47Z</time>
      </trkpt>
      <trkpt lat="47.695378996431828" lon="12.241007331758738">
        <ele>997.505126953125</ele>
        <time>2013-02-24T15:02:48Z</time>
      </trkpt>
      <trkpt lat="47.695341696962714" lon="12.241048905998468">
        <ele>997.0244140625</ele>
        <time>2013-02-24T15:02:49Z</time>
      </trkpt>
      <trkpt lat="47.695323340594769" lon="12.241164492443204">
        <ele>994.140625</ele>
        <time>2013-02-24T15:02:53Z</time>
      </trkpt>
      <trkpt lat="47.695331890136003" lon="12.241139346733689">
        <ele>993.659912109375</ele>
        <time>2013-02-24T15:03:04Z</time>
      </trkpt>
      <trkpt lat="47.69533222541213" lon="12.241137167438865">
        <ele>994.62109375</ele>
        <time>2013-02-24T15:04:09Z</time>
      </trkpt>
      <trkpt lat="47.695261063054204" lon="12.241198187693954">
        <ele>992.218017578125</ele>
        <time>2013-02-24T15:04:14Z</time>
      </trkpt>
      <trkpt lat="47.695254441350698" lon="12.24125811830163">
        <ele>991.7373046875</ele>
        <time>2013-02-24T15:04:15Z</time>
      </trkpt>
      <trkpt lat="47.695251004770398" lon="12.241320898756385">
        <ele>989.814697265625</ele>
        <time>2013-02-24T15:04:16Z</time>
      </trkpt>
      <trkpt lat="47.695219740271568" lon="12.24142231978476">
        <ele>987.4111328125</ele>
        <time>2013-02-24T15:04:18Z</time>
      </trkpt>
      <trkpt lat="47.695148913189769" lon="12.241468084976077">
        <ele>985.008056640625</ele>
        <time>2013-02-24T15:04:20Z</time>
      </trkpt>
      <trkpt lat="47.69511379301548" lon="12.241492895409465">
        <ele>981.643310546875</ele>
        <time>2013-02-24T15:04:21Z</time>
      </trkpt>
      <trkpt lat="47.695044139400125" lon="12.241549724712968">
        <ele>977.317626953125</ele>
        <time>2013-02-24T15:04:23Z</time>
      </trkpt>
      <trkpt lat="47.694939784705639" lon="12.241582246497273">
        <ele>974.43359375</ele>
        <time>2013-02-24T15:04:26Z</time>
      </trkpt>
      <trkpt lat="47.694858144968748" lon="12.241758685559034">
        <ele>965.78173828125</ele>
        <time>2013-02-24T15:04:29Z</time>
      </trkpt>
      <trkpt lat="47.694815061986446" lon="12.241785256192088">
        <ele>965.78173828125</ele>
        <time>2013-02-24T15:04:30Z</time>
      </trkpt>
      <trkpt lat="47.694765022024512" lon="12.241784753277898">
        <ele>962.4169921875</ele>
        <time>2013-02-24T15:04:31Z</time>
      </trkpt>
      <trkpt lat="47.694668043404818" lon="12.241857508197427">
        <ele>957.1298828125</ele>
        <time>2013-02-24T15:04:34Z</time>
      </trkpt>
      <trkpt lat="47.694644909352064" lon="12.241878630593419">
        <ele>957.610595703125</ele>
        <time>2013-02-24T15:04:35Z</time>
      </trkpt>
      <trkpt lat="47.694586319848895" lon="12.241894472390413">
        <ele>954.245849609375</ele>
        <time>2013-02-24T15:04:37Z</time>
      </trkpt>
      <trkpt lat="47.694495627656579" lon="12.24196613766253">
        <ele>947.997314453125</ele>
        <time>2013-02-24T15:04:40Z</time>
      </trkpt>
      <trkpt lat="47.694466290995479" lon="12.241986086592078">
        <ele>948.95849609375</ele>
        <time>2013-02-24T15:04:41Z</time>
      </trkpt>
      <trkpt lat="47.694438965991139" lon="12.24200863391161">
        <ele>945.11328125</ele>
        <time>2013-02-24T15:04:42Z</time>
      </trkpt>
      <trkpt lat="47.694341903552413" lon="12.2421611007303">
        <ele>939.34521484375</ele>
        <time>2013-02-24T15:04:46Z</time>
      </trkpt>
      <trkpt lat="47.694290690124035" lon="12.242227904498577">
        <ele>935.5</ele>
        <time>2013-02-24T15:04:48Z</time>
      </trkpt>
      <trkpt lat="47.694267388433218" lon="12.242260174825788">
        <ele>932.6162109375</ele>
        <time>2013-02-24T15:04:49Z</time>
      </trkpt>
      <trkpt lat="47.694182228296995" lon="12.24236729554832">
        <ele>927.3291015625</ele>
        <time>2013-02-24T15:04:52Z</time>
      </trkpt>
      <trkpt lat="47.694071335718036" lon="12.242506183683872">
        <ele>923.483642578125</ele>
        <time>2013-02-24T15:04:55Z</time>
      </trkpt>
      <trkpt lat="47.694038394838572" lon="12.242551697418094">
        <ele>920.118896484375</ele>
        <time>2013-02-24T15:04:56Z</time>
      </trkpt>
      <trkpt lat="47.694002771750093" lon="12.242586901411414">
        <ele>920.599609375</ele>
        <time>2013-02-24T15:04:57Z</time>
      </trkpt>
      <trkpt lat="47.693971758708358" lon="12.242633672431111">
        <ele>916.75439453125</ele>
        <time>2013-02-24T15:04:58Z</time>
      </trkpt>
      <trkpt lat="47.693883161991835" lon="12.242747498676181">
        <ele>910.505859375</ele>
        <time>2013-02-24T15:05:01Z</time>
      </trkpt>
      <trkpt lat="47.693817531690001" lon="12.242818744853139">
        <ele>906.660400390625</ele>
        <time>2013-02-24T15:05:03Z</time>
      </trkpt>
      <trkpt lat="47.693732371553779" lon="12.242906168103218">
        <ele>902.815185546875</ele>
        <time>2013-02-24T15:05:05Z</time>
      </trkpt>
      <trkpt lat="47.693636398762465" lon="12.243007505312562">
        <ele>897.04736328125</ele>
        <time>2013-02-24T15:05:07Z</time>
      </trkpt>
      <trkpt lat="47.693458367139101" lon="12.243224931880832">
        <ele>891.279296875</ele>
        <time>2013-02-24T15:05:12Z</time>
      </trkpt>
      <trkpt lat="47.693359963595867" lon="12.243379075080156">
        <ele>886.953369140625</ele>
        <time>2013-02-24T15:05:17Z</time>
      </trkpt>
      <trkpt lat="47.693277653306723" lon="12.243535397574306">
        <ele>882.14697265625</ele>
        <time>2013-02-24T15:05:20Z</time>
      </trkpt>
      <trkpt lat="47.693228451535106" lon="12.243652744218707">
        <ele>878.782470703125</ele>
        <time>2013-02-24T15:05:22Z</time>
      </trkpt>
      <trkpt lat="47.693234486505389" lon="12.243771180510521">
        <ele>876.85986328125</ele>
        <time>2013-02-24T15:05:25Z</time>
      </trkpt>
      <trkpt lat="47.693242616951466" lon="12.243884420022368">
        <ele>873.9755859375</ele>
        <time>2013-02-24T15:05:29Z</time>
      </trkpt>
      <trkpt lat="47.693251501768827" lon="12.243873020634055">
        <ele>874.93701171875</ele>
        <time>2013-02-24T15:05:52Z</time>
      </trkpt>
      <trkpt lat="47.693255022168159" lon="12.243865309283137">
        <ele>876.379150390625</ele>
        <time>2013-02-24T15:08:20Z</time>
      </trkpt>
      <trkpt lat="47.69328678958118" lon="12.243911912664771">
        <ele>875.41748046875</ele>
        <time>2013-02-24T15:08:23Z</time>
      </trkpt>
      <trkpt lat="47.693345295265317" lon="12.244117604568601">
        <ele>871.572265625</ele>
        <time>2013-02-24T15:08:27Z</time>
      </trkpt>
      <trkpt lat="47.693363148719072" lon="12.244150210171938">
        <ele>871.091796875</ele>
        <time>2013-02-24T15:08:28Z</time>
      </trkpt>
      <trkpt lat="47.69344856031239" lon="12.244212571531534">
        <ele>869.169189453125</ele>
        <time>2013-02-24T15:08:33Z</time>
      </trkpt>
      <trkpt lat="47.693452415987849" lon="12.24424609914422">
        <ele>868.6884765625</ele>
        <time>2013-02-24T15:08:43Z</time>
      </trkpt>
      <trkpt lat="47.693503126502037" lon="12.244284404441714">
        <ele>866.28515625</ele>
        <time>2013-02-24T15:08:53Z</time>
      </trkpt>
      <trkpt lat="47.693558111786842" lon="12.244298234581947">
        <ele>865.323974609375</ele>
        <time>2013-02-24T15:09:02Z</time>
      </trkpt>
      <trkpt lat="47.693561716005206" lon="12.244296474382281">
        <ele>864.84326171875</ele>
        <time>2013-02-24T15:09:03Z</time>
      </trkpt>
      <trkpt lat="47.693611923605204" lon="12.244235621765256">
        <ele>862.920654296875</ele>
        <time>2013-02-24T15:09:06Z</time>
      </trkpt>
      <trkpt lat="47.693729437887669" lon="12.244162783026695">
        <ele>861.478759765625</ele>
        <time>2013-02-24T15:09:09Z</time>
      </trkpt>
      <trkpt lat="47.693767827004194" lon="12.244204776361585">
        <ele>861.478759765625</ele>
        <time>2013-02-24T15:09:12Z</time>
      </trkpt>
      <trkpt lat="47.693761037662625" lon="12.244250038638711">
        <ele>862.43994140625</ele>
        <time>2013-02-24T15:09:23Z</time>
      </trkpt>
      <trkpt lat="47.693775957450271" lon="12.244274262338877">
        <ele>862.43994140625</ele>
        <time>2013-02-24T15:09:32Z</time>
      </trkpt>
      <trkpt lat="47.693761372938752" lon="12.244351292029023">
        <ele>861.95947265625</ele>
        <time>2013-02-24T15:09:38Z</time>
      </trkpt>
      <trkpt lat="47.693764138966799" lon="12.244359673932195">
        <ele>861.95947265625</ele>
        <time>2013-02-24T15:10:28Z</time>
      </trkpt>
      <trkpt lat="47.693745447322726" lon="12.244403762742877">
        <ele>861.478759765625</ele>
        <time>2013-02-24T15:11:10Z</time>
      </trkpt>
      <trkpt lat="47.69366598688066" lon="12.244603587314487">
        <ele>860.517333984375</ele>
        <time>2013-02-24T15:11:18Z</time>
      </trkpt>
      <trkpt lat="47.693597339093685" lon="12.244715485721827">
        <ele>860.998046875</ele>
        <time>2013-02-24T15:11:27Z</time>
      </trkpt>
      <trkpt lat="47.693500444293022" lon="12.244847500696778">
        <ele>860.03662109375</ele>
        <time>2013-02-24T15:11:35Z</time>
      </trkpt>
      <trkpt lat="47.693404052406549" lon="12.245025699958205">
        <ele>860.03662109375</ele>
        <time>2013-02-24T15:11:43Z</time>
      </trkpt>
      <trkpt lat="47.69337622448802" lon="12.245097449049354">
        <ele>860.03662109375</ele>
        <time>2013-02-24T15:11:45Z</time>
      </trkpt>
      <trkpt lat="47.693329118192196" lon="12.245403723791242">
        <ele>857.152587890625</ele>
        <time>2013-02-24T15:11:48Z</time>
      </trkpt>
      <trkpt lat="47.693300871178508" lon="12.245548646897078">
        <ele>856.191162109375</ele>
        <time>2013-02-24T15:11:50Z</time>
      </trkpt>
      <trkpt lat="47.693273043259978" lon="12.245709076523781">
        <ele>854.268798828125</ele>
        <time>2013-02-24T15:11:53Z</time>
      </trkpt>
      <trkpt lat="47.693258207291365" lon="12.245849557220936">
        <ele>851.384765625</ele>
        <time>2013-02-24T15:11:56Z</time>
      </trkpt>
      <trkpt lat="47.693302882835269" lon="12.246303856372833">
        <ele>849.94287109375</ele>
        <time>2013-02-24T15:12:01Z</time>
      </trkpt>
      <trkpt lat="47.69326776266098" lon="12.246345514431596">
        <ele>850.423583984375</ele>
        <time>2013-02-24T15:12:05Z</time>
      </trkpt>
      <trkpt lat="47.693255273625255" lon="12.246439224109054">
        <ele>851.384765625</ele>
        <time>2013-02-24T15:12:22Z</time>
      </trkpt>
      <trkpt lat="47.693254435434937" lon="12.246537208557129">
        <ele>850.904052734375</ele>
        <time>2013-02-24T15:12:33Z</time>
      </trkpt>
      <trkpt lat="47.693257117643952" lon="12.246746756136417">
        <ele>850.423583984375</ele>
        <time>2013-02-24T15:12:40Z</time>
      </trkpt>
      <trkpt lat="47.693260470405221" lon="12.246863516047597">
        <ele>850.423583984375</ele>
        <time>2013-02-24T15:12:47Z</time>
      </trkpt>
      <trkpt lat="47.693264158442616" lon="12.246998967602849">
        <ele>849.462158203125</ele>
        <time>2013-02-24T15:12:51Z</time>
      </trkpt>
      <trkpt lat="47.693213447928429" lon="12.247356958687305">
        <ele>846.09765625</ele>
        <time>2013-02-24T15:12:56Z</time>
      </trkpt>
      <trkpt lat="47.693188888952136" lon="12.247738922014832">
        <ele>843.21337890625</ele>
        <time>2013-02-24T15:13:00Z</time>
      </trkpt>
      <trkpt lat="47.693211017176509" lon="12.248077550902963">
        <ele>840.81005859375</ele>
        <time>2013-02-24T15:13:04Z</time>
      </trkpt>
      <trkpt lat="47.693243958055973" lon="12.2482327837497">
        <ele>839.848876953125</ele>
        <time>2013-02-24T15:13:06Z</time>
      </trkpt>
      <trkpt lat="47.693216968327761" lon="12.248492455109954">
        <ele>837.92626953125</ele>
        <time>2013-02-24T15:13:10Z</time>
      </trkpt>
      <trkpt lat="47.693180004134774" lon="12.248534364625812">
        <ele>837.445556640625</ele>
        <time>2013-02-24T15:13:11Z</time>
      </trkpt>
      <trkpt lat="47.693035332486033" lon="12.248786827549338">
        <ele>831.197265625</ele>
        <time>2013-02-24T15:13:15Z</time>
      </trkpt>
      <trkpt lat="47.692993003875017" lon="12.248817253857851">
        <ele>831.197265625</ele>
        <time>2013-02-24T15:13:16Z</time>
      </trkpt>
      <trkpt lat="47.692846991121769" lon="12.248883973807096">
        <ele>827.832275390625</ele>
        <time>2013-02-24T15:13:19Z</time>
      </trkpt>
      <trkpt lat="47.692644484341145" lon="12.248905431479216">
        <ele>823.506591796875</ele>
        <time>2013-02-24T15:13:23Z</time>
      </trkpt>
      <trkpt lat="47.692600982263684" lon="12.248882297426462">
        <ele>823.987060546875</ele>
        <time>2013-02-24T15:13:24Z</time>
      </trkpt>
      <trkpt lat="47.692549098283052" lon="12.248866707086563">
        <ele>821.583740234375</ele>
        <time>2013-02-24T15:13:26Z</time>
      </trkpt>
      <trkpt lat="47.69256703555584" lon="12.248868718743324">
        <ele>821.103271484375</ele>
        <time>2013-02-24T15:13:30Z</time>
      </trkpt>
      <trkpt lat="47.692568963393569" lon="12.248850781470537">
        <ele>820.62255859375</ele>
        <time>2013-02-24T15:13:38Z</time>
      </trkpt>
      <trkpt lat="47.692557564005256" lon="12.248749695718288">
        <ele>819.661376953125</ele>
        <time>2013-02-24T15:14:27Z</time>
      </trkpt>
      <trkpt lat="47.692633252590895" lon="12.248475356027484">
        <ele>815.33544921875</ele>
        <time>2013-02-24T15:14:31Z</time>
      </trkpt>
      <trkpt lat="47.692643813788891" lon="12.248189030215144">
        <ele>812.93212890625</ele>
        <time>2013-02-24T15:14:34Z</time>
      </trkpt>
      <trkpt lat="47.692632414400578" lon="12.248107139021158">
        <ele>809.086669921875</ele>
        <time>2013-02-24T15:14:35Z</time>
      </trkpt>
      <trkpt lat="47.692508026957512" lon="12.248085681349039">
        <ele>806.20263671875</ele>
        <time>2013-02-24T15:14:38Z</time>
      </trkpt>
      <trkpt lat="47.692382633686066" lon="12.248029019683599">
        <ele>803.31884765625</ele>
        <time>2013-02-24T15:14:41Z</time>
      </trkpt>
      <trkpt lat="47.692339047789574" lon="12.247964227572083">
        <ele>800.91552734375</ele>
        <time>2013-02-24T15:14:43Z</time>
      </trkpt>
      <trkpt lat="47.692269729450345" lon="12.247922401875257">
        <ele>798.03173828125</ele>
        <time>2013-02-24T15:14:46Z</time>
      </trkpt>
      <trkpt lat="47.692266376689076" lon="12.247937992215157">
        <ele>798.03173828125</ele>
        <time>2013-02-24T15:14:55Z</time>
      </trkpt>
      <trkpt lat="47.692183563485742" lon="12.248005298897624">
        <ele>796.109130859375</ele>
        <time>2013-02-24T15:14:59Z</time>
      </trkpt>
      <trkpt lat="47.69204375334084" lon="12.248335462063551">
        <ele>790.821533203125</ele>
        <time>2013-02-24T15:15:04Z</time>
      </trkpt>
      <trkpt lat="47.692029252648354" lon="12.248391788452864">
        <ele>790.821533203125</ele>
        <time>2013-02-24T15:15:05Z</time>
      </trkpt>
      <trkpt lat="47.691989187151194" lon="12.248584823682904">
        <ele>786.01513671875</ele>
        <time>2013-02-24T15:15:09Z</time>
      </trkpt>
      <trkpt lat="47.691942332312465" lon="12.248652633279562">
        <ele>784.5732421875</ele>
        <time>2013-02-24T15:15:12Z</time>
      </trkpt>
      <trkpt lat="47.69195188768208" lon="12.248630421236157">
        <ele>784.5732421875</ele>
        <time>2013-02-24T15:15:25Z</time>
      </trkpt>
      <trkpt lat="47.691908553242683" lon="12.248688591644168">
        <ele>783.131103515625</ele>
        <time>2013-02-24T15:15:29Z</time>
      </trkpt>
      <trkpt lat="47.69188592210412" lon="12.248834855854511">
        <ele>782.169921875</ele>
        <time>2013-02-24T15:15:32Z</time>
      </trkpt>
      <trkpt lat="47.691849628463387" lon="12.249040380120277">
        <ele>781.208740234375</ele>
        <time>2013-02-24T15:15:36Z</time>
      </trkpt>
      <trkpt lat="47.691790452226996" lon="12.249140124768019">
        <ele>779.28564453125</ele>
        <time>2013-02-24T15:15:38Z</time>
      </trkpt>
      <trkpt lat="47.691681403666735" lon="12.249380266293883">
        <ele>777.84375</ele>
        <time>2013-02-24T15:15:42Z</time>
      </trkpt>
      <trkpt lat="47.691612839698792" lon="12.249682517722249">
        <ele>775.4404296875</ele>
        <time>2013-02-24T15:15:47Z</time>
      </trkpt>
      <trkpt lat="47.691596746444702" lon="12.249788213521242">
        <ele>774.9599609375</ele>
        <time>2013-02-24T15:15:49Z</time>
      </trkpt>
      <trkpt lat="47.691582161933184" lon="12.250014189630747">
        <ele>772.075927734375</ele>
        <time>2013-02-24T15:15:53Z</time>
      </trkpt>
      <trkpt lat="47.691558692604303" lon="12.250055847689509">
        <ele>771.11474609375</ele>
        <time>2013-02-24T15:15:54Z</time>
      </trkpt>
      <trkpt lat="47.691500354558229" lon="12.250142516568303">
        <ele>771.11474609375</ele>
        <time>2013-02-24T15:16:01Z</time>
      </trkpt>
      <trkpt lat="47.691497085615993" lon="12.250137152150273">
        <ele>771.59521484375</ele>
        <time>2013-02-24T15:16:22Z</time>
      </trkpt>
      <trkpt lat="47.691500019282103" lon="12.250149473547935">
        <ele>771.11474609375</ele>
        <time>2013-02-24T15:16:30Z</time>
      </trkpt>
      <trkpt lat="47.691490380093455" lon="12.250144612044096">
        <ele>771.11474609375</ele>
        <time>2013-02-24T15:16:41Z</time>
      </trkpt>
      <trkpt lat="47.69148132763803" lon="12.250134302303195">
        <ele>770.634033203125</ele>
        <time>2013-02-24T15:16:52Z</time>
      </trkpt>
      <trkpt lat="47.691471604630351" lon="12.250130362808704">
        <ele>770.1533203125</ele>
        <time>2013-02-24T15:17:01Z</time>
      </trkpt>
      <trkpt lat="47.691453499719501" lon="12.250156933441758">
        <ele>769.6728515625</ele>
        <time>2013-02-24T15:17:19Z</time>
      </trkpt>
      <trkpt lat="47.691429359838367" lon="12.250186270102859">
        <ele>769.192138671875</ele>
        <time>2013-02-24T15:17:27Z</time>
      </trkpt>
      <trkpt lat="47.691394994035363" lon="12.250191466882825">
        <ele>770.1533203125</ele>
        <time>2013-02-24T15:17:37Z</time>
      </trkpt>
      <trkpt lat="47.691398011520505" lon="12.250235304236412">
        <ele>771.11474609375</ele>
        <time>2013-02-24T15:17:43Z</time>
      </trkpt>
      <trkpt lat="47.691370686516166" lon="12.25024594925344">
        <ele>771.59521484375</ele>
        <time>2013-02-24T15:17:52Z</time>
      </trkpt>
      <trkpt lat="47.691368674859405" lon="12.250275621190667">
        <ele>771.59521484375</ele>
        <time>2013-02-24T15:18:00Z</time>
      </trkpt>
      <trkpt lat="47.691351994872093" lon="12.250319207087159">
        <ele>771.59521484375</ele>
        <time>2013-02-24T15:18:20Z</time>
      </trkpt>
      <trkpt lat="47.691227607429028" lon="12.250424735248089">
        <ele>771.11474609375</ele>
        <time>2013-02-24T15:18:27Z</time>
      </trkpt>
      <trkpt lat="47.691196594387293" lon="12.250449126586318">
        <ele>770.1533203125</ele>
        <time>2013-02-24T15:18:29Z</time>
      </trkpt>
      <trkpt lat="47.69116373732686" lon="12.250530682504177">
        <ele>770.1533203125</ele>
        <time>2013-02-24T15:18:35Z</time>
      </trkpt>
      <trkpt lat="47.691120905801654" lon="12.250621374696493">
        <ele>771.11474609375</ele>
        <time>2013-02-24T15:18:47Z</time>
      </trkpt>
      <trkpt lat="47.6910977717489" lon="12.250650208443403">
        <ele>771.11474609375</ele>
        <time>2013-02-24T15:18:55Z</time>
      </trkpt>
      <trkpt lat="47.691069189459085" lon="12.250668061897159">
        <ele>770.634033203125</ele>
        <time>2013-02-24T15:19:00Z</time>
      </trkpt>
      <trkpt lat="47.690917560830712" lon="12.250761771574616">
        <ele>770.634033203125</ele>
        <time>2013-02-24T15:19:06Z</time>
      </trkpt>
      <trkpt lat="47.69084706902504" lon="12.250803513452411">
        <ele>769.192138671875</ele>
        <time>2013-02-24T15:19:08Z</time>
      </trkpt>
      <trkpt lat="47.690816977992654" lon="12.250816002488136">
        <ele>769.6728515625</ele>
        <time>2013-02-24T15:19:09Z</time>
      </trkpt>
      <trkpt lat="47.690677000209689" lon="12.250936785712838">
        <ele>767.26953125</ele>
        <time>2013-02-24T15:19:13Z</time>
      </trkpt>
      <trkpt lat="47.690600892528892" lon="12.251112135127187">
        <ele>766.30810546875</ele>
        <time>2013-02-24T15:19:17Z</time>
      </trkpt>
      <trkpt lat="47.690488994121552" lon="12.251241216436028">
        <ele>764.8662109375</ele>
        <time>2013-02-24T15:19:21Z</time>
      </trkpt>
      <trkpt lat="47.690420430153608" lon="12.251357389613986">
        <ele>763.424072265625</ele>
        <time>2013-02-24T15:19:25Z</time>
      </trkpt>
      <trkpt lat="47.690381202846766" lon="12.25146115757525">
        <ele>763.424072265625</ele>
        <time>2013-02-24T15:19:27Z</time>
      </trkpt>
      <trkpt lat="47.690244829282165" lon="12.251584036275744">
        <ele>762.462646484375</ele>
        <time>2013-02-24T15:19:34Z</time>
      </trkpt>
      <trkpt lat="47.690143994987011" lon="12.251778328791261">
        <ele>761.020751953125</ele>
        <time>2013-02-24T15:19:40Z</time>
      </trkpt>
      <trkpt lat="47.690117759630084" lon="12.252126010134816">
        <ele>759.578857421875</ele>
        <time>2013-02-24T15:19:47Z</time>
      </trkpt>
      <trkpt lat="47.690049866214395" lon="12.252270430326462">
        <ele>759.578857421875</ele>
        <time>2013-02-24T15:19:52Z</time>
      </trkpt>
      <trkpt lat="47.689978620037436" lon="12.252460028976202">
        <ele>758.136962890625</ele>
        <time>2013-02-24T15:19:58Z</time>
      </trkpt>
      <trkpt lat="47.689934698864818" lon="12.252678880468011">
        <ele>757.175537109375</ele>
        <time>2013-02-24T15:20:05Z</time>
      </trkpt>
      <trkpt lat="47.689909050241113" lon="12.252902174368501">
        <ele>756.69482421875</ele>
        <time>2013-02-24T15:20:11Z</time>
      </trkpt>
      <trkpt lat="47.68984392285347" lon="12.253048941493034">
        <ele>756.69482421875</ele>
        <time>2013-02-24T15:20:18Z</time>
      </trkpt>
      <trkpt lat="47.689786925911903" lon="12.253085570409894">
        <ele>757.175537109375</ele>
        <time>2013-02-24T15:20:24Z</time>
      </trkpt>
      <trkpt lat="47.689730599522591" lon="12.253169640898705">
        <ele>758.136962890625</ele>
        <time>2013-02-24T15:20:37Z</time>
      </trkpt>
      <trkpt lat="47.689706711098552" lon="12.253300650045276">
        <ele>758.136962890625</ele>
        <time>2013-02-24T15:20:49Z</time>
      </trkpt>
      <trkpt lat="47.689689276739955" lon="12.253470467403531">
        <ele>758.136962890625</ele>
        <time>2013-02-24T15:20:59Z</time>
      </trkpt>
      <trkpt lat="47.689698664471507" lon="12.253582365810871">
        <ele>756.69482421875</ele>
        <time>2013-02-24T15:21:06Z</time>
      </trkpt>
      <trkpt lat="47.689689360558987" lon="12.253564009442925">
        <ele>757.175537109375</ele>
        <time>2013-02-24T15:21:16Z</time>
      </trkpt>
      <trkpt lat="47.689687851816416" lon="12.253562835976481">
        <ele>757.65625</ele>
        <time>2013-02-24T15:21:23Z</time>
      </trkpt>
      <trkpt lat="47.689662370830774" lon="12.253656461834908">
        <ele>755.733642578125</ele>
        <time>2013-02-24T15:21:32Z</time>
      </trkpt>
      <trkpt lat="47.689633369445801" lon="12.253757799044251">
        <ele>754.772216796875</ele>
        <time>2013-02-24T15:21:40Z</time>
      </trkpt>
      <trkpt lat="47.68962406553328" lon="12.253818064928055">
        <ele>754.772216796875</ele>
        <time>2013-02-24T15:21:49Z</time>
      </trkpt>
      <trkpt lat="47.689613923430443" lon="12.253882270306349">
        <ele>754.291748046875</ele>
        <time>2013-02-24T15:22:05Z</time>
      </trkpt>
      <trkpt lat="47.689483752474189" lon="12.254346124827862">
        <ele>751.40771484375</ele>
        <time>2013-02-24T15:22:11Z</time>
      </trkpt>
      <trkpt lat="47.689442094415426" lon="12.254489287734032">
        <ele>750.927001953125</ele>
        <time>2013-02-24T15:22:13Z</time>
      </trkpt>
      <trkpt lat="47.689393227919936" lon="12.254610573872924">
        <ele>749.9658203125</ele>
        <time>2013-02-24T15:22:15Z</time>
      </trkpt>
      <trkpt lat="47.689339751377702" lon="12.254808973520994">
        <ele>748.523681640625</ele>
        <time>2013-02-24T15:22:18Z</time>
      </trkpt>
      <trkpt lat="47.689231457188725" lon="12.2551937866956">
        <ele>746.60107421875</ele>
        <time>2013-02-24T15:22:25Z</time>
      </trkpt>
      <trkpt lat="47.689154930412769" lon="12.255428899079561">
        <ele>746.120361328125</ele>
        <time>2013-02-24T15:22:33Z</time>
      </trkpt>
      <trkpt lat="47.689080582931638" lon="12.255782447755337">
        <ele>744.19775390625</ele>
        <time>2013-02-24T15:22:39Z</time>
      </trkpt>
      <trkpt lat="47.689065327867866" lon="12.255849586799741">
        <ele>744.19775390625</ele>
        <time>2013-02-24T15:22:40Z</time>
      </trkpt>
      <trkpt lat="47.688974216580391" lon="12.256122082471848">
        <ele>742.275146484375</ele>
        <time>2013-02-24T15:22:46Z</time>
      </trkpt>
      <trkpt lat="47.688855780288577" lon="12.256409330293536">
        <ele>741.79443359375</ele>
        <time>2013-02-24T15:22:55Z</time>
      </trkpt>
      <trkpt lat="47.688810685649514" lon="12.256625667214394">
        <ele>741.313720703125</ele>
        <time>2013-02-24T15:23:03Z</time>
      </trkpt>
      <trkpt lat="47.688766596838832" lon="12.256890870630741">
        <ele>739.871826171875</ele>
        <time>2013-02-24T15:23:12Z</time>
      </trkpt>
      <trkpt lat="47.688765088096261" lon="12.25718105211854">
        <ele>738.429931640625</ele>
        <time>2013-02-24T15:23:21Z</time>
      </trkpt>
      <trkpt lat="47.688753772526979" lon="12.257212232798338">
        <ele>738.429931640625</ele>
        <time>2013-02-24T15:23:23Z</time>
      </trkpt>
      <trkpt lat="47.688772967085242" lon="12.257405184209347">
        <ele>737.94921875</ele>
        <time>2013-02-24T15:23:30Z</time>
      </trkpt>
      <trkpt lat="47.688788725063205" lon="12.257464863359928">
        <ele>736.98779296875</ele>
        <time>2013-02-24T15:23:34Z</time>
      </trkpt>
      <trkpt lat="47.688799872994423" lon="12.25758514367044">
        <ele>736.50732421875</ele>
        <time>2013-02-24T15:23:39Z</time>
      </trkpt>
      <trkpt lat="47.68892970867455" lon="12.257843473926187">
        <ele>735.5458984375</ele>
        <time>2013-02-24T15:23:52Z</time>
      </trkpt>
      <trkpt lat="47.689007073640823" lon="12.257982278242707">
        <ele>735.0654296875</ele>
        <time>2013-02-24T15:23:58Z</time>
      </trkpt>
      <trkpt lat="47.689099693670869" lon="12.258183443918824">
        <ele>734.10400390625</ele>
        <time>2013-02-24T15:24:06Z</time>
      </trkpt>
      <trkpt lat="47.689141435548663" lon="12.258196184411645">
        <ele>733.623291015625</ele>
        <time>2013-02-24T15:24:11Z</time>
      </trkpt>
      <trkpt lat="47.689142441377044" lon="12.25819643586874">
        <ele>732.662109375</ele>
        <time>2013-02-24T15:24:21Z</time>
      </trkpt>
      <trkpt lat="47.689145039767027" lon="12.258189311251044">
        <ele>733.623291015625</ele>
        <time>2013-02-24T15:24:29Z</time>
      </trkpt>
      <trkpt lat="47.689141100272536" lon="12.258186964318156">
        <ele>732.662109375</ele>
        <time>2013-02-24T15:24:40Z</time>
      </trkpt>
      <trkpt lat="47.689148057252169" lon="12.258194256573915">
        <ele>733.142578125</ele>
        <time>2013-02-24T15:24:49Z</time>
      </trkpt>
      <trkpt lat="47.689141351729631" lon="12.258203141391277">
        <ele>733.142578125</ele>
        <time>2013-02-24T15:25:10Z</time>
      </trkpt>
      <trkpt lat="47.689143614843488" lon="12.258198950439692">
        <ele>733.623291015625</ele>
        <time>2013-02-24T15:25:17Z</time>
      </trkpt>
      <trkpt lat="47.689139423891902" lon="12.258198112249374">
        <ele>733.623291015625</ele>
        <time>2013-02-24T15:25:20Z</time>
      </trkpt>
      <trkpt lat="47.689142944291234" lon="12.258271537721157">
        <ele>733.623291015625</ele>
        <time>2013-02-24T15:25:25Z</time>
      </trkpt>
      <trkpt lat="47.689241347834468" lon="12.258485443890095">
        <ele>732.181396484375</ele>
        <time>2013-02-24T15:25:38Z</time>
      </trkpt>
      <trkpt lat="47.689286358654499" lon="12.258602455258369">
        <ele>731.700439453125</ele>
        <time>2013-02-24T15:25:48Z</time>
      </trkpt>
      <trkpt lat="47.689352240413427" lon="12.258723070845008">
        <ele>731.219970703125</ele>
        <time>2013-02-24T15:25:57Z</time>
      </trkpt>
      <trkpt lat="47.68949649296701" lon="12.259093383327127">
        <ele>729.297119140625</ele>
        <time>2013-02-24T15:26:18Z</time>
      </trkpt>
      <trkpt lat="47.689613001421094" lon="12.25932028144598">
        <ele>727.855224609375</ele>
        <time>2013-02-24T15:26:33Z</time>
      </trkpt>
      <trkpt lat="47.689699083566666" lon="12.259528068825603">
        <ele>727.374755859375</ele>
        <time>2013-02-24T15:26:48Z</time>
      </trkpt>
      <trkpt lat="47.689742082729936" lon="12.259618677198887">
        <ele>726.413330078125</ele>
        <time>2013-02-24T15:26:55Z</time>
      </trkpt>
      <trkpt lat="47.689784914255142" lon="12.259629406034946">
        <ele>725.9326171875</ele>
        <time>2013-02-24T15:27:03Z</time>
      </trkpt>
      <trkpt lat="47.689779298380017" lon="12.259622784331441">
        <ele>725.9326171875</ele>
        <time>2013-02-24T15:27:19Z</time>
      </trkpt>
      <trkpt lat="47.689782734960318" lon="12.259602164849639">
        <ele>724.971435546875</ele>
        <time>2013-02-24T15:27:27Z</time>
      </trkpt>
      <trkpt lat="47.689781729131937" lon="12.259602835401893">
        <ele>726.413330078125</ele>
        <time>2013-02-24T15:27:56Z</time>
      </trkpt>
    </trkseg>
  </trk>

</gpx>
